PORTS® Data Listing: 8465705 New Haven, CT

CO-OPS RAW PORTS DATA

************************      PRELIMINARY DATA      ************************** 

     THIS RAW DATA HAS NOT BEEN SUBJECT TO THE NATIONAL OCEAN SERVICE'S        
     QUALITY CONTROL OR QUALITY ASSURANCE PROCEDURES AND DOES NOT MEET         
     THE CRITERIA AND STANDARDS OF OFFICIAL NATIONAL OCEAN SERVICE             
     DATA.  IT IS RELEASED FOR LIMITED PUBLIC USE AS PRELIMINARY DATA TO       
     BE USED ONLY WITH APPROPRIATE CAUTION.                                    

************************      PRELIMINARY DATA      ************************** 


       CD   -   Calendar date
       T    -   Time
       TZ   -   Timezone
       PW   -   Predicted water level (feet above MLLW)
       OW   -   Observed water level (feet above MLLW)
       WS   -   Wind speed (knots)
       WD   -   Wind direction (degrees true)
       WG   -   Wind gust (knots)
       AT   -   Air temperature (degrees farenheit)
       WT   -   Water temperature (degrees farenheit)
       AP   -   Air pressure (millibars)
       SA   -   Salinty (PSU - Practical Salinity Units)
       SG   -   Specific gravity
       RH   -   Relative humidity
       AG   -   Air gap (feet)
       VI   -   Visibility (nautical miles)

       ** NOTE **
       A variable that has its data fields filled with "9"s, indicates that
       data was not collected for that sample period.
       **********


STATION NAME: New Haven (8465705)
****************************************************************************************************
    CD       T    TZ    PW     OW    WS   WD   WG    AT    WT    AP    SA    SG     RH    AG   VI
****************************************************************************************************
2019/12/09 00:48 EST    1.63   1.71    2  303    3  40.5  40.6 1026.3 -9.9 -9.999 -99.9 -99.99 -9.99
2019/12/09 00:54 EST    1.52   1.62    2  332    3  40.6  40.6 1026.3 -9.9 -9.999 -99.9 -99.99 -9.99
2019/12/09 01:00 EST    1.42   1.53    1  348    2  40.1  40.6 1026.3 -9.9 -9.999 -99.9 -99.99 -9.99
2019/12/09 01:06 EST    1.32   1.46    0  289    2  40.1  40.6 1026.2 -9.9 -9.999 -99.9 -99.99 -9.99
2019/12/09 01:12 EST    1.22   1.39    1  283    1  40.3  40.6 1026.2 -9.9 -9.999 -99.9 -99.99 -9.99
2019/12/09 01:18 EST    1.13   1.32    0  283    1  40.3  40.6 1026.3 -9.9 -9.999 -99.9 -99.99 -9.99
2019/12/09 01:24 EST    1.04   1.24    0  125    1  40.1  40.6 1026.2 -9.9 -9.999 -99.9 -99.99 -9.99
2019/12/09 01:30 EST    0.96   1.17    2  144    2  40.1  40.6 1025.9 -9.9 -9.999 -99.9 -99.99 -9.99
2019/12/09 01:36 EST    0.88   1.09    1  132    1  40.3  40.6 1025.8 -9.9 -9.999 -99.9 -99.99 -9.99
2019/12/09 01:42 EST    0.80   1.01    1  130    1  40.3  40.6 1025.7 -9.9 -9.999 -99.9 -99.99 -9.99
2019/12/09 01:48 EST    0.74   0.94    0  130    1  40.3  40.6 1025.6 -9.9 -9.999 -99.9 -99.99 -9.99
2019/12/09 01:54 EST    0.68   0.85    0  130    0  40.5  40.6 1025.5 -9.9 -9.999 -99.9 -99.99 -9.99
2019/12/09 02:00 EST    0.62   0.77    0  130    0  40.5  40.6 1025.4 -9.9 -9.999 -99.9 -99.99 -9.99
2019/12/09 02:06 EST    0.57   0.71    0  131    0  40.5  40.6 1025.4 -9.9 -9.999 -99.9 -99.99 -9.99
2019/12/09 02:12 EST    0.53   0.68    1  256    1  40.5  40.6 1025.5 -9.9 -9.999 -99.9 -99.99 -9.99
2019/12/09 02:18 EST    0.50   0.67    0  182    1  40.5  40.6 1025.5 -9.9 -9.999 -99.9 -99.99 -9.99
2019/12/09 02:24 EST    0.48   0.66    0  179    0  40.3  40.5 1025.4 -9.9 -9.999 -99.9 -99.99 -9.99
2019/12/09 02:30 EST    0.47   0.64    0  179    0  40.3  40.5 1025.4 -9.9 -9.999 -99.9 -99.99 -9.99
2019/12/09 02:36 EST    0.46   0.63    0  198    0  39.9  40.5 1025.4 -9.9 -9.999 -99.9 -99.99 -9.99
2019/12/09 02:42 EST    0.47   0.62    0  274    1  39.9  40.5 1025.4 -9.9 -9.999 -99.9 -99.99 -9.99
2019/12/09 02:48 EST    0.48   0.63    0  186    1  39.9  40.5 1025.3 -9.9 -9.999 -99.9 -99.99 -9.99
2019/12/09 02:54 EST    0.50   0.66    0  186    0  39.9  40.5 1025.2 -9.9 -9.999 -99.9 -99.99 -9.99
2019/12/09 03:00 EST    0.53   0.69    0  181    1  39.9  40.5 1025.1 -9.9 -9.999 -99.9 -99.99 -9.99
2019/12/09 03:06 EST    0.57   0.73    0  181    2  39.9  40.5 1025.1 -9.9 -9.999 -99.9 -99.99 -9.99
2019/12/09 03:12 EST    0.62   0.77    1  146    2  39.7  40.5 1024.9 -9.9 -9.999 -99.9 -99.99 -9.99
2019/12/09 03:18 EST    0.68   0.83    0  142    1  39.6  40.5 1024.7 -9.9 -9.999 -99.9 -99.99 -9.99
2019/12/09 03:24 EST    0.75   0.91    0  142    0  39.6  40.5 1024.6 -9.9 -9.999 -99.9 -99.99 -9.99
2019/12/09 03:30 EST    0.82   0.98    0  103    1  39.7  40.5 1024.6 -9.9 -9.999 -99.9 -99.99 -9.99
2019/12/09 03:36 EST    0.91   1.06    0   55    1  39.6  40.3 1024.5 -9.9 -9.999 -99.9 -99.99 -9.99
2019/12/09 03:42 EST    1.00   1.13    0   36    1  39.6  40.3 1024.3 -9.9 -9.999 -99.9 -99.99 -9.99
2019/12/09 03:48 EST    1.09   1.19    0   25    1  39.7  40.3 1024.3 -9.9 -9.999 -99.9 -99.99 -9.99
2019/12/09 03:54 EST    1.20   1.26    1   51    2  39.7  40.3 1024.2 -9.9 -9.999 -99.9 -99.99 -9.99
2019/12/09 04:00 EST    1.31   1.34    1   68    3  39.7  40.3 1024.1 -9.9 -9.999 -99.9 -99.99 -9.99
2019/12/09 04:06 EST    1.42   1.43    1  108    2  39.9  40.3 1024.0 -9.9 -9.999 -99.9 -99.99 -9.99
2019/12/09 04:12 EST    1.54   1.53    0  118    1  40.3  40.3 1023.9 -9.9 -9.999 -99.9 -99.99 -9.99
2019/12/09 04:18 EST    1.66   1.64    1   90    1  40.3  40.3 1023.8 -9.9 -9.999 -99.9 -99.99 -9.99
2019/12/09 04:24 EST    1.79   1.76    0   56    2  40.6  40.3 1023.7 -9.9 -9.999 -99.9 -99.99 -9.99
2019/12/09 04:30 EST    1.92   1.87    2   92    2  40.6  40.3 1023.7 -9.9 -9.999 -99.9 -99.99 -9.99
2019/12/09 04:36 EST    2.05   1.99    1   60    2  40.8  40.5 1023.5 -9.9 -9.999 -99.9 -99.99 -9.99
2019/12/09 04:42 EST    2.18   2.13    2   87    2  40.8  40.5 1023.5 -9.9 -9.999 -99.9 -99.99 -9.99
2019/12/09 04:48 EST    2.32   2.27    0   98    2  41.0  40.5 1023.4 -9.9 -9.999 -99.9 -99.99 -9.99
2019/12/09 04:54 EST    2.45   2.41    1  113    2  41.0  40.5 1023.4 -9.9 -9.999 -99.9 -99.99 -9.99
2019/12/09 05:00 EST    2.59   2.53    0  155    2  41.2  40.5 1023.3 -9.9 -9.999 -99.9 -99.99 -9.99
2019/12/09 05:06 EST    2.73   2.65    0  155    0  41.0  40.5 1023.3 -9.9 -9.999 -99.9 -99.99 -9.99
2019/12/09 05:12 EST    2.86   2.79    1   24    2  41.0  40.5 1023.2 -9.9 -9.999 -99.9 -99.99 -9.99
2019/12/09 05:18 EST    3.00   2.90    2   80    3  40.6  40.5 1023.1 -9.9 -9.999 -99.9 -99.99 -9.99
2019/12/09 05:24 EST    3.14   3.03    2   87    3  40.8  40.5 1023.0 -9.9 -9.999 -99.9 -99.99 -9.99
2019/12/09 05:30 EST    3.27   3.15    1   93    4  41.0  40.5 1022.8 -9.9 -9.999 -99.9 -99.99 -9.99
2019/12/09 05:36 EST    3.41   3.28    3   86    4  41.2  40.5 1022.8 -9.9 -9.999 -99.9 -99.99 -9.99
2019/12/09 05:42 EST    3.54   3.40    3   83    4  41.4  40.5 1022.7 -9.9 -9.999 -99.9 -99.99 -9.99
2019/12/09 05:48 EST    3.67   3.53    1   79    4  41.5  40.5 1022.6 -9.9 -9.999 -99.9 -99.99 -9.99
2019/12/09 05:54 EST    3.81   3.66    1   76    2  41.4  40.5 1022.6 -9.9 -9.999 -99.9 -99.99 -9.99
2019/12/09 06:00 EST    3.94   3.78    1   65    2  41.4  40.5 1022.6 -9.9 -9.999 -99.9 -99.99 -9.99
2019/12/09 06:06 EST    4.07   3.90    1   69    2  41.4  40.5 1022.6 -9.9 -9.999 -99.9 -99.99 -9.99
2019/12/09 06:12 EST    4.20   4.02    0  187    2  41.4  40.5 1022.6 -9.9 -9.999 -99.9 -99.99 -9.99
2019/12/09 06:18 EST    4.33   4.13    0  305    2  41.5  40.5 1022.6 -9.9 -9.999 -99.9 -99.99 -9.99
2019/12/09 06:24 EST    4.45   4.27    1   25    3  41.2  40.5 1022.5 -9.9 -9.999 -99.9 -99.99 -9.99
2019/12/09 06:30 EST    4.58   4.41    1   32    2  40.8  40.5 1022.4 -9.9 -9.999 -99.9 -99.99 -9.99
2019/12/09 06:36 EST    4.70   4.55    2   40    3  40.8  40.5 1022.3 -9.9 -9.999 -99.9 -99.99 -9.99
2019/12/09 06:42 EST    4.82   4.68    2   38    3  40.8  40.5 1022.1 -9.9 -9.999 -99.9 -99.99 -9.99
2019/12/09 06:48 EST    4.94   4.79    0    2    3  40.6  40.5 1022.0 -9.9 -9.999 -99.9 -99.99 -9.99
2019/12/09 06:54 EST    5.06   4.88    2   38    3  40.6  40.5 1021.9 -9.9 -9.999 -99.9 -99.99 -9.99
2019/12/09 07:00 EST    5.18   4.96    2   46    3  40.5  40.5 1021.7 -9.9 -9.999 -99.9 -99.99 -9.99
2019/12/09 07:06 EST    5.29   5.06    1   28    3  40.3  40.6 1021.6 -9.9 -9.999 -99.9 -99.99 -9.99
2019/12/09 07:12 EST    5.40   5.18    2   45    4  40.1  40.6 1021.4 -9.9 -9.999 -99.9 -99.99 -9.99
2019/12/09 07:18 EST    5.51   5.29    3   47    4  40.1  40.6 1021.3 -9.9 -9.999 -99.9 -99.99 -9.99
2019/12/09 07:24 EST    5.62   5.39    1   77    4  40.1  40.6 1021.1 -9.9 -9.999 -99.9 -99.99 -9.99
2019/12/09 07:30 EST    5.72   5.48    2   44    5  40.3  40.6 1020.9 -9.9 -9.999 -99.9 -99.99 -9.99
2019/12/09 07:36 EST    5.82   5.57    3   54    6  39.9  40.6 1020.5 -9.9 -9.999 -99.9 -99.99 -9.99
2019/12/09 07:42 EST    5.91   5.65    4   51    7  39.9  40.6 1020.5 -9.9 -9.999 -99.9 -99.99 -9.99
2019/12/09 07:48 EST    6.00   5.73    3   43    6  39.7  40.6 1020.3 -9.9 -9.999 -99.9 -99.99 -9.99
2019/12/09 07:54 EST    6.08   5.82    1   44    5  40.1  40.6 1020.2 -9.9 -9.999 -99.9 -99.99 -9.99
2019/12/09 08:00 EST    6.15   5.89    2   55    4  40.5  40.6 1020.0 -9.9 -9.999 -99.9 -99.99 -9.99
2019/12/09 08:06 EST    6.22   5.97    2    7    4  40.5  40.6 1019.9 -9.9 -9.999 -99.9 -99.99 -9.99
2019/12/09 08:12 EST    6.29   6.06    1    5    3  40.6  40.6 1020.0 -9.9 -9.999 -99.9 -99.99 -9.99
2019/12/09 08:18 EST    6.34   6.14    2    8    4  40.8  40.6 1020.1 -9.9 -9.999 -99.9 -99.99 -9.99
2019/12/09 08:24 EST    6.39   6.22    1   33    4  41.0  40.6 1020.2 -9.9 -9.999 -99.9 -99.99 -9.99
2019/12/09 08:30 EST    6.43   6.27    1    7    4  41.0  40.6 1020.1 -9.9 -9.999 -99.9 -99.99 -9.99
2019/12/09 08:36 EST    6.46   6.31    1  346    5  41.0  40.6 1020.2 -9.9 -9.999 -99.9 -99.99 -9.99
2019/12/09 08:42 EST    6.48   6.29    3   47    5  41.2  40.6 1020.2 -9.9 -9.999 -99.9 -99.99 -9.99
2019/12/09 08:48 EST    6.49   6.28    3   27    5  41.2  40.6 1020.1 -9.9 -9.999 -99.9 -99.99 -9.99
2019/12/09 08:54 EST    6.49   6.26    3   81    4  41.4  40.6 1019.9 -9.9 -9.999 -99.9 -99.99 -9.99
2019/12/09 09:00 EST    6.49   6.22    4   56    7  41.4  40.8 1019.7 -9.9 -9.999 -99.9 -99.99 -9.99
2019/12/09 09:06 EST    6.47   6.17    3   10    5  41.7  40.8 1019.6 -9.9 -9.999 -99.9 -99.99 -9.99
2019/12/09 09:12 EST    6.44   6.13    2   25    4  41.7  40.8 1019.5 -9.9 -9.999 -99.9 -99.99 -9.99
2019/12/09 09:18 EST    6.41   6.12    2   59    4  41.9  40.8 1019.5 -9.9 -9.999 -99.9 -99.99 -9.99
2019/12/09 09:24 EST    6.37   6.12    2   87    3  42.3  40.8 1019.4 -9.9 -9.999 -99.9 -99.99 -9.99
2019/12/09 09:30 EST    6.31   6.11    4  141    6  44.1  40.6 1019.4 -9.9 -9.999 -99.9 -99.99 -9.99
2019/12/09 09:36 EST    6.25   6.07    2   92    5  47.5  40.6 1019.3 -9.9 -9.999 -99.9 -99.99 -9.99
2019/12/09 09:42 EST    6.18   6.04    2    6    4  48.7  40.6 1018.7 -9.9 -9.999 -99.9 -99.99 -9.99
2019/12/09 09:48 EST    6.10   5.97    3   59    4  47.1  40.6 1018.7 -9.9 -9.999 -99.9 -99.99 -9.99
2019/12/09 09:54 EST    6.02   5.86    5  113    6  47.7  40.6 1018.5 -9.9 -9.999 -99.9 -99.99 -9.99
2019/12/09 10:00 EST    5.92   5.72    6  120   10  50.4  40.6 1018.2 -9.9 -9.999 -99.9 -99.99 -9.99
2019/12/09 10:06 EST    5.82   5.63    7  142   10  51.3  40.8 1017.9 -9.9 -9.999 -99.9 -99.99 -9.99
2019/12/09 10:12 EST    5.72   5.54    9  155   13  51.6  40.8 1017.7 -9.9 -9.999 -99.9 -99.99 -9.99
2019/12/09 10:18 EST    5.61   5.46   11  158   15  51.8  40.8 1017.5 -9.9 -9.999 -99.9 -99.99 -9.99
2019/12/09 10:24 EST    5.49   5.39   16  163   22  52.3  40.8 1017.4 -9.9 -9.999 -99.9 -99.99 -9.99
2019/12/09 10:30 EST    5.37   5.33   17  170   22  53.1  40.8 1017.2 -9.9 -9.999 -99.9 -99.99 -9.99
2019/12/09 10:36 EST    5.24   5.28   19  178   26  53.2  40.8 1017.2 -9.9 -9.999 -99.9 -99.99 -9.99
2019/12/09 10:42 EST    5.12   5.24   20  184   27  54.0  40.8 1017.2 -9.9 -9.999 -99.9 -99.99 -9.99
2019/12/09 10:48 EST    4.98   5.16   18  180   22  52.9  40.6 1017.1 -9.9 -9.999 -99.9 -99.99 -9.99
2019/12/09 10:54 EST    4.85   5.07   16  182   21  52.7  40.6 1016.6 -9.9 -9.999 -99.9 -99.99 -9.99
2019/12/09 11:00 EST    4.71   4.96   17  180   22  52.5  40.6 1016.5 -9.9 -9.999 -99.9 -99.99 -9.99
2019/12/09 11:06 EST    4.58   4.78   19  185   23  52.9  40.6 1016.4 -9.9 -9.999 -99.9 -99.99 -9.99
2019/12/09 11:12 EST    4.44   4.55   18  186   22  53.1  40.6 1016.4 -9.9 -9.999 -99.9 -99.99 -9.99
2019/12/09 11:18 EST    4.30   4.33   18  188   24  52.0  40.6 1016.3 -9.9 -9.999 -99.9 -99.99 -9.99
2019/12/09 11:24 EST    4.16   4.18   19  188   22  52.0  40.6 1016.1 -9.9 -9.999 -99.9 -99.99 -9.99
2019/12/09 11:30 EST    4.01   4.10   19  188   22  51.4  40.6 1016.1 -9.9 -9.999 -99.9 -99.99 -9.99
2019/12/09 11:36 EST    3.87   4.05   20  189   24  51.1  40.6 1016.0 -9.9 -9.999 -99.9 -99.99 -9.99
2019/12/09 11:42 EST    3.73   4.00   18  193   24  51.6  40.6 1016.1 -9.9 -9.999 -99.9 -99.99 -9.99
2019/12/09 11:48 EST    3.59   3.91   17  192   21  50.7  40.6 1016.0 -9.9 -9.999 -99.9 -99.99 -9.99
2019/12/09 11:54 EST    3.45   3.83   16  198   20  50.7  40.6 1015.9 -9.9 -9.999 -99.9 -99.99 -9.99
2019/12/09 12:00 EST    3.31   3.74   16  203   19  50.4  40.6 1015.8 -9.9 -9.999 -99.9 -99.99 -9.99
2019/12/09 12:06 EST    3.17   3.62   15  205   19  50.4  40.8 1015.7 -9.9 -9.999 -99.9 -99.99 -9.99
2019/12/09 12:12 EST    3.03   3.42   14  203   16  49.6  41.0 1015.5 -9.9 -9.999 -99.9 -99.99 -9.99
2019/12/09 12:18 EST    2.89   3.21   15  200   19  49.5  41.0 1015.5 -9.9 -9.999 -99.9 -99.99 -9.99
2019/12/09 12:24 EST    2.75   3.00   15  200   18  49.6  41.0 1015.3 -9.9 -9.999 -99.9 -99.99 -9.99
2019/12/09 12:30 EST    2.61   2.81   14  200   17  49.8  41.0 1015.1 -9.9 -9.999 -99.9 -99.99 -9.99
2019/12/09 12:36 EST    2.48   2.66   13  199   16  49.6  41.0 1014.9 -9.9 -9.999 -99.9 -99.99 -9.99
2019/12/09 12:42 EST    2.34   2.53   13  192   16  49.1  41.2 1014.8 -9.9 -9.999 -99.9 -99.99 -9.99
2019/12/09 12:48 EST    2.21   2.40   11  193   13  48.7  41.0 1014.5 -9.9 -9.999 -99.9 -99.99 -9.99
2019/12/09 12:54 EST    2.07   2.25   11  190   12  48.2  41.0 1014.4 -9.9 -9.999 -99.9 -99.99 -9.99
2019/12/09 13:00 EST    1.94   2.13   11  189   13  48.6  41.0 1014.2 -9.9 -9.999 -99.9 -99.99 -9.99
2019/12/09 13:06 EST    1.81   2.02   11  186   12  48.9  41.2 1014.1 -9.9 -9.999 -99.9 -99.99 -9.99
2019/12/09 13:12 EST    1.68   1.94   11  185   12  49.1  41.4 1013.9 -9.9 -9.999 -99.9 -99.99 -9.99
2019/12/09 13:18 EST    1.55   1.83   10  185   11  49.3  41.4 1013.9 -9.9 -9.999 -99.9 -99.99 -9.99
2019/12/09 13:24 EST    1.42   1.68   10  183   11  49.5  41.4 1013.7 -9.9 -9.999 -99.9 -99.99 -9.99
2019/12/09 13:30 EST    1.30   1.57   11  184   12  49.8  41.4 1013.6 -9.9 -9.999 -99.9 -99.99 -9.99
2019/12/09 13:36 EST    1.18   1.45   11  184   13  49.6  41.2 1013.6 -9.9 -9.999 -99.9 -99.99 -9.99
2019/12/09 13:42 EST    1.06   1.35   12  187   12  49.8  41.2 1013.5 -9.9 -9.999 -99.9 -99.99 -9.99
2019/12/09 13:48 EST    0.95   1.28   11  193   12  49.5  41.2 1013.5 -9.9 -9.999 -99.9 -99.99 -9.99
2019/12/09 13:54 EST    0.84   1.22   10  190   11  48.2  41.4 1013.5 -9.9 -9.999 -99.9 -99.99 -9.99
2019/12/09 14:00 EST    0.74   1.16   10  189   11  47.8  41.4 1013.4 -9.9 -9.999 -99.9 -99.99 -9.99
2019/12/09 14:06 EST    0.64   1.06    9  191   10  48.0  41.4 1013.4 -9.9 -9.999 -99.9 -99.99 -9.99
2019/12/09 14:12 EST    0.55   0.97    9  197   10  47.7  41.4 1013.3 -9.9 -9.999 -99.9 -99.99 -9.99
2019/12/09 14:18 EST    0.47   0.86   10  198   11  47.7  41.5 1013.3 -9.9 -9.999 -99.9 -99.99 -9.99
2019/12/09 14:24 EST    0.39   0.75   10  197   11  48.0  41.4 1013.2 -9.9 -9.999 -99.9 -99.99 -9.99
2019/12/09 14:30 EST    0.32   0.63   10  203   11  47.8  41.4 1013.2 -9.9 -9.999 -99.9 -99.99 -9.99
2019/12/09 14:36 EST    0.25   0.51    9  206   10  47.8  41.4 1013.2 -9.9 -9.999 -99.9 -99.99 -9.99
2019/12/09 14:42 EST    0.20   0.39    9  217   11  47.7  41.4 1013.2 -9.9 -9.999 -99.9 -99.99 -9.99
2019/12/09 14:48 EST    0.15   0.31    8  229    8  47.5  41.4 1013.3 -9.9 -9.999 -99.9 -99.99 -9.99
2019/12/09 14:54 EST    0.12   0.29    9  238   11  47.7  41.4 1013.3 -9.9 -9.999 -99.9 -99.99 -9.99
2019/12/09 15:00 EST    0.09   0.32    7  208   12  49.6  41.4 1013.3 -9.9 -9.999 -99.9 -99.99 -9.99
2019/12/09 15:06 EST    0.07   0.37    6  210    8  47.3  41.4 1012.9 -9.9 -9.999 -99.9 -99.99 -9.99
2019/12/09 15:12 EST    0.06   0.43    5  205    6  47.1  41.4 1012.6 -9.9 -9.999 -99.9 -99.99 -9.99
2019/12/09 15:18 EST    0.06   0.47    6  200    7  46.9  41.4 1012.6 -9.9 -9.999 -99.9 -99.99 -9.99
2019/12/09 15:24 EST    0.07   0.50    7  200    8  46.4  41.5 1012.6 -9.9 -9.999 -99.9 -99.99 -9.99
2019/12/09 15:30 EST    0.09   0.47    7  203    8  46.0  41.7 1012.6 -9.9 -9.999 -99.9 -99.99 -9.99
2019/12/09 15:36 EST    0.12   0.44    6  201    7  46.6  41.7 1012.6 -9.9 -9.999 -99.9 -99.99 -9.99
2019/12/09 15:42 EST    0.16   0.42    6  200    7  45.9  41.5 1012.7 -9.9 -9.999 -99.9 -99.99 -9.99
2019/12/09 15:48 EST    0.21   0.46    7  216    7  45.5  41.5 1012.6 -9.9 -9.999 -99.9 -99.99 -9.99
2019/12/09 15:54 EST    0.26   0.49    5  218    6  46.2  41.5 1012.5 -9.9 -9.999 -99.9 -99.99 -9.99
2019/12/09 16:00 EST    0.33   0.55    5  217    5  45.9  41.5 1012.3 -9.9 -9.999 -99.9 -99.99 -9.99
2019/12/09 16:06 EST    0.40   0.65    4  205    6  46.2  41.5 1012.0 -9.9 -9.999 -99.9 -99.99 -9.99
2019/12/09 16:12 EST    0.48   0.74    4  198    5  45.7  41.5 1012.0 -9.9 -9.999 -99.9 -99.99 -9.99
2019/12/09 16:18 EST    0.57   0.82    4  202    5  45.9  41.7 1012.0 -9.9 -9.999 -99.9 -99.99 -9.99
2019/12/09 16:24 EST    0.66   0.95    4  183    4  46.6  41.9 1011.7 -9.9 -9.999 -99.9 -99.99 -9.99
2019/12/09 16:30 EST    0.76   1.07    5  186    5  47.1  41.9 1011.6 -9.9 -9.999 -99.9 -99.99 -9.99
2019/12/09 16:36 EST    0.86   1.18    5  183    6  48.0  41.9 1011.6 -9.9 -9.999 -99.9 -99.99 -9.99
2019/12/09 16:42 EST    0.97   1.31    6  175    7  48.9  41.9 1011.4 -9.9 -9.999 -99.9 -99.99 -9.99
2019/12/09 16:48 EST    1.09   1.43    7  181    8  49.3  41.9 1011.2 -9.9 -9.999 -99.9 -99.99 -9.99
2019/12/09 16:54 EST    1.20   1.57    7  175    8  49.3  41.7 1011.2 -9.9 -9.999 -99.9 -99.99 -9.99
2019/12/09 17:00 EST    1.32   1.70    9  174   10  49.5  41.7 1011.0 -9.9 -9.999 -99.9 -99.99 -9.99
2019/12/09 17:06 EST    1.45   1.80    9  176   11  50.2  41.7 1010.9 -9.9 -9.999 -99.9 -99.99 -9.99
2019/12/09 17:12 EST    1.57   1.91    9  173   11  50.4  41.7 1010.8 -9.9 -9.999 -99.9 -99.99 -9.99
2019/12/09 17:18 EST    1.70   2.00    9  172   11  50.4  41.7 1010.7 -9.9 -9.999 -99.9 -99.99 -9.99
2019/12/09 17:24 EST    1.83   2.10   11  174   12  50.9  41.7 1010.6 -9.9 -9.999 -99.9 -99.99 -9.99
2019/12/09 17:30 EST    1.95   2.24   10  178   13  50.7  41.7 1010.7 -9.9 -9.999 -99.9 -99.99 -9.99
2019/12/09 17:36 EST    2.08   2.40   10  176   11  50.7  41.7 1010.7 -9.9 -9.999 -99.9 -99.99 -9.99
2019/12/09 17:42 EST    2.21   2.55    9  175   12  51.1  41.7 1010.7 -9.9 -9.999 -99.9 -99.99 -9.99
2019/12/09 17:48 EST    2.35   2.69    9  180   11  51.3  41.5 1010.6 -9.9 -9.999 -99.9 -99.99 -9.99
2019/12/09 17:54 EST    2.48   2.84    9  178   10  50.9  41.5 1010.7 -9.9 -9.999 -99.9 -99.99 -9.99
2019/12/09 18:00 EST    2.61   3.03    8  188   10  50.5  41.5 1010.7 -9.9 -9.999 -99.9 -99.99 -9.99
2019/12/09 18:06 EST    2.74   3.20    6  182    9  49.8  41.5 1010.8 -9.9 -9.999 -99.9 -99.99 -9.99
2019/12/09 18:12 EST    2.87   3.32    6  176    7  49.5  41.5 1010.5 -9.9 -9.999 -99.9 -99.99 -9.99
2019/12/09 18:18 EST    3.00   3.43    7  174    8  50.4  41.5 1010.4 -9.9 -9.999 -99.9 -99.99 -9.99
2019/12/09 18:24 EST    3.13   3.53    8  176   10  50.5  41.5 1010.3 -9.9 -9.999 -99.9 -99.99 -9.99
2019/12/09 18:30 EST    3.25   3.61    9  175   10  50.7  41.5 1010.3 -9.9 -9.999 -99.9 -99.99 -9.99
2019/12/09 18:36 EST    3.38   3.70    9  175   10  50.2  41.5 1010.2 -9.9 -9.999 -99.9 -99.99 -9.99
2019/12/09 18:42 EST    3.51   3.81    8  176   10  50.0  41.5 1009.9 -9.9 -9.999 -99.9 -99.99 -9.99
2019/12/09 18:48 EST    3.63   3.93    8  179    9  49.6  41.5 1009.7 -9.9 -9.999 -99.9 -99.99 -9.99
2019/12/09 18:54 EST    3.76   4.06    8  183    9  49.8  41.5 1009.6 -9.9 -9.999 -99.9 -99.99 -9.99
2019/12/09 19:00 EST    3.88   4.20    8  180    9  50.0  41.5 1009.7 -9.9 -9.999 -99.9 -99.99 -9.99
2019/12/09 19:06 EST    4.01   4.33    9  189   10  49.6  41.5 1009.6 -9.9 -9.999 -99.9 -99.99 -9.99
2019/12/09 19:12 EST    4.13   4.49    9  177   10  49.3  41.5 1009.4 -9.9 -9.999 -99.9 -99.99 -9.99
2019/12/09 19:18 EST    4.25   4.65   10  177   12  49.8  41.5 1009.1 -9.9 -9.999 -99.9 -99.99 -9.99
2019/12/09 19:24 EST    4.37   4.79    8  173   11  50.9  41.5 1008.8 -9.9 -9.999 -99.9 -99.99 -9.99
2019/12/09 19:30 EST    4.48   4.92    8  172   10  50.9  41.5 1008.7 -9.9 -9.999 -99.9 -99.99 -9.99
2019/12/09 19:36 EST    4.60   5.02    8  172   10  51.3  41.4 1008.6 -9.9 -9.999 -99.9 -99.99 -9.99
2019/12/09 19:42 EST    4.71   5.10    7  182    9  51.1  41.4 1008.5 -9.9 -9.999 -99.9 -99.99 -9.99
2019/12/09 19:48 EST    4.82   5.18    8  194    9  50.9  41.4 1008.5 -9.9 -9.999 -99.9 -99.99 -9.99
2019/12/09 19:54 EST    4.92   5.28    7  200    9  50.2  41.4 1008.7 -9.9 -9.999 -99.9 -99.99 -9.99
2019/12/09 20:00 EST    5.02   5.39    4  206    7  49.1  41.4 1008.6 -9.9 -9.999 -99.9 -99.99 -9.99
2019/12/09 20:06 EST    5.12   5.52    5  180    5  47.5  41.4 1008.4 -9.9 -9.999 -99.9 -99.99 -9.99
2019/12/09 20:12 EST    5.21   5.66    6  194    7  47.1  41.2 1008.2 -9.9 -9.999 -99.9 -99.99 -9.99
2019/12/09 20:18 EST    5.30   5.78    8  217   11  49.6  41.2 1008.0 -9.9 -9.999 -99.9 -99.99 -9.99
2019/12/09 20:24 EST    5.38   5.88   11  205   16  50.5  41.2 1008.0 -9.9 -9.999 -99.9 -99.99 -9.99
2019/12/09 20:30 EST    5.45   5.95   13  212   16  50.4  41.2 1007.7 -9.9 -9.999 -99.9 -99.99 -9.99
2019/12/09 20:36 EST    5.52   6.03   11  213   13  50.9  41.2 1007.8 -9.9 -9.999 -99.9 -99.99 -9.99
2019/12/09 20:42 EST    5.58   6.10    8  209   11  49.5  41.2 1007.7 -9.9 -9.999 -99.9 -99.99 -9.99
2019/12/09 20:48 EST    5.63   6.17    6  215    8  48.2  41.2 1007.6 -9.9 -9.999 -99.9 -99.99 -9.99
2019/12/09 20:54 EST    5.67   6.25    5  235    8  48.4  41.2 1007.3 -9.9 -9.999 -99.9 -99.99 -9.99
2019/12/09 21:00 EST    5.71   6.31    6  232    6  48.4  41.2 1007.3 -9.9 -9.999 -99.9 -99.99 -9.99
2019/12/09 21:06 EST    5.73   6.35    7  208    8  47.8  41.2 1007.2 -9.9 -9.999 -99.9 -99.99 -9.99
2019/12/09 21:12 EST    5.75   6.38    6  213    7  48.0  41.2 1007.3 -9.9 -9.999 -99.9 -99.99 -9.99
2019/12/09 21:18 EST    5.76   6.40    5  225    6  47.7  41.2 1007.2 -9.9 -9.999 -99.9 -99.99 -9.99
2019/12/09 21:24 EST    5.76   6.40    5  204    6  47.7  41.2 1007.3 -9.9 -9.999 -99.9 -99.99 -9.99
2019/12/09 21:30 EST    5.75   6.39    7  213    9  48.0  41.2 1007.2 -9.9 -9.999 -99.9 -99.99 -9.99
2019/12/09 21:36 EST    5.73   6.41   10  230   13  49.6  41.2 1007.2 -9.9 -9.999 -99.9 -99.99 -9.99
2019/12/09 21:42 EST    5.70   6.40    8  227   10  50.2  41.2 1007.1 -9.9 -9.999 -99.9 -99.99 -9.99
2019/12/09 21:48 EST    5.66   6.34    9  229   10  49.5  41.2 1007.0 -9.9 -9.999 -99.9 -99.99 -9.99
2019/12/09 21:54 EST    5.62   6.24    8  233   10  48.9  41.2 1006.9 -9.9 -9.999 -99.9 -99.99 -9.99
2019/12/09 22:00 EST    5.56   6.14    8  223   10  48.6  41.0 1006.8 -9.9 -9.999 -99.9 -99.99 -9.99
2019/12/09 22:06 EST    5.50   6.03    7  231    8  48.2  41.0 1006.7 -9.9 -9.999 -99.9 -99.99 -9.99
2019/12/09 22:12 EST    5.42   5.99    9  232   11  47.8  41.0 1006.8 -9.9 -9.999 -99.9 -99.99 -9.99
2019/12/09 22:18 EST    5.35   5.91   11  235   13  48.9  41.0 1006.8 -9.9 -9.999 -99.9 -99.99 -9.99
2019/12/09 22:24 EST    5.26   5.84   10  229   13  49.8  41.0 1007.0 -9.9 -9.999 -99.9 -99.99 -9.99
2019/12/09 22:30 EST    5.17   5.79    9  221   12  49.1  41.0 1006.8 -9.9 -9.999 -99.9 -99.99 -9.99
2019/12/09 22:36 EST    5.07   5.72    9  219   10  48.2  41.0 1006.7 -9.9 -9.999 -99.9 -99.99 -9.99
2019/12/09 22:42 EST    4.96   5.63    9  214   10  48.2  41.0 1006.6 -9.9 -9.999 -99.9 -99.99 -9.99
2019/12/09 22:48 EST    4.85   5.52    8  212   10  47.8  41.0 1006.6 -9.9 -9.999 -99.9 -99.99 -9.99
2019/12/09 22:54 EST    4.74   5.37    8  214   10  48.0  41.0 1006.4 -9.9 -9.999 -99.9 -99.99 -9.99
2019/12/09 23:00 EST    4.62   5.19    9  217   10  48.2  41.0 1006.4 -9.9 -9.999 -99.9 -99.99 -9.99
2019/12/09 23:06 EST    4.50   5.03    8  209   10  48.4  41.0 1006.3 -9.9 -9.999 -99.9 -99.99 -9.99
2019/12/09 23:12 EST    4.38   4.89    8  220   10  48.0  41.0 1006.3 -9.9 -9.999 -99.9 -99.99 -9.99
2019/12/09 23:18 EST    4.25   4.73    8  221   11  48.2  41.0 1006.5 -9.9 -9.999 -99.9 -99.99 -9.99
2019/12/09 23:24 EST    4.12   4.66    8  216    9  48.2  41.0 1006.4 -9.9 -9.999 -99.9 -99.99 -9.99
2019/12/09 23:30 EST    4.00   4.59    7  218    9  48.0  41.0 1006.3 -9.9 -9.999 -99.9 -99.99 -9.99
2019/12/09 23:36 EST    3.87   4.52    6  213    9  48.0  41.0 1006.5 -9.9 -9.999 -99.9 -99.99 -9.99
2019/12/09 23:42 EST    3.74   4.44    8  211   11  48.2  41.0 1006.4 -9.9 -9.999 -99.9 -99.99 -9.99
2019/12/09 23:48 EST    3.61   4.32    8  206    9  48.2  41.0 1006.3 -9.9 -9.999 -99.9 -99.99 -9.99
2019/12/09 23:54 EST    3.48   4.21    9  218   10  47.8  41.0 1006.4 -9.9 -9.999 -99.9 -99.99 -9.99
2019/12/10 00:00 EST    3.35   4.08   10  223   11  48.2  41.0 1006.5 -9.9 -9.999 -99.9 -99.99 -9.99
2019/12/10 00:06 EST    3.22   3.94    9  223   11  48.7  41.0 1006.5 -9.9 -9.999 -99.9 -99.99 -9.99
2019/12/10 00:12 EST    3.09   3.78    9  224   11  48.4  41.0 1006.4 -9.9 -9.999 -99.9 -99.99 -9.99
2019/12/10 00:18 EST    2.97   3.60    9  224   11  48.2  41.0 1006.4 -9.9 -9.999 -99.9 -99.99 -9.99
2019/12/10 00:24 EST    2.84   3.46    8  212   10  47.7  41.0 1006.4 -9.9 -9.999 -99.9 -99.99 -9.99
2019/12/10 00:30 EST    2.72   3.30    9  207   10  47.8  41.0 1006.2 -9.9 -9.999 -99.9 -99.99 -9.99
2019/12/10 00:36 EST    2.59   3.14    9  201   10  47.7  41.0 1006.3 -9.9 -9.999 -99.9 -99.99 -9.99
2019/12/10 00:42 EST    2.47   3.02    7  206    9  47.8  41.0 1006.0 -9.9 -9.999 -99.9 -99.99 -9.99
2019/12/10 00:48 EST    2.35   2.89    7  204    8  47.8  41.0 1006.3 -9.9 -9.999 -99.9 -99.99 -9.99
2019/12/10 00:54 EST    2.23   2.76    7  220    8  48.2  41.0 1006.4 -9.9 -9.999 -99.9 -99.99 -9.99
2019/12/10 01:00 EST    2.11   2.64    7  217    8  48.6  41.2 1006.4 -9.9 -9.999 -99.9 -99.99 -9.99
2019/12/10 01:06 EST    2.00   2.54    8  212   10  48.4  41.2 1006.4 -9.9 -9.999 -99.9 -99.99 -9.99
2019/12/10 01:12 EST    1.88   2.45    8  215    9  48.6  41.4 1006.4 -9.9 -9.999 -99.9 -99.99 -9.99
2019/12/10 01:18 EST    1.77   2.38    7  213    9  48.6  41.4 1006.3 -9.9 -9.999 -99.9 -99.99 -9.99
2019/12/10 01:24 EST    1.66   2.30    7  216    8  48.7  41.5 1006.0 -9.9 -9.999 -99.9 -99.99 -9.99
2019/12/10 01:30 EST    1.55   2.19    7  213    9  48.4  41.7 1006.1 -9.9 -9.999 -99.9 -99.99 -9.99
2019/12/10 01:36 EST    1.45   2.09    8  216    9  48.4  41.7 1006.1 -9.9 -9.999 -99.9 -99.99 -9.99
2019/12/10 01:42 EST    1.34   1.97    7  212    9  48.7  41.7 1006.1 -9.9 -9.999 -99.9 -99.99 -9.99
2019/12/10 01:48 EST    1.24   1.85    7  209    8  48.4  41.7 1006.2 -9.9 -9.999 -99.9 -99.99 -9.99
2019/12/10 01:54 EST    1.15   1.74    7  200    8  48.0  41.7 1006.3 -9.9 -9.999 -99.9 -99.99 -9.99
2019/12/10 02:00 EST    1.05   1.64    7  195    8  47.8  41.9 1006.3 -9.9 -9.999 -99.9 -99.99 -9.99
2019/12/10 02:06 EST    0.96   1.54    6  205    8  47.8  41.9 1006.4 -9.9 -9.999 -99.9 -99.99 -9.99
2019/12/10 02:12 EST    0.88   1.44    7  201    8  48.0  41.9 1006.5 -9.9 -9.999 -99.9 -99.99 -9.99
2019/12/10 02:18 EST    0.80   1.33    7  203    8  48.0  42.1 1006.5 -9.9 -9.999 -99.9 -99.99 -9.99
2019/12/10 02:24 EST    0.73   1.22    8  206    9  47.7  42.1 1006.8 -9.9 -9.999 -99.9 -99.99 -9.99
2019/12/10 02:30 EST    0.66   1.14    8  198    9  47.5  42.1 1006.8 -9.9 -9.999 -99.9 -99.99 -9.99
2019/12/10 02:36 EST    0.60   1.08    8  203   11  47.3  42.1 1006.7 -9.9 -9.999 -99.9 -99.99 -9.99
2019/12/10 02:42 EST    0.54   1.03    9  202   11  48.0  42.1 1006.6 -9.9 -9.999 -99.9 -99.99 -9.99
2019/12/10 02:48 EST    0.50   1.01    8  205   10  48.2  42.1 1006.9 -9.9 -9.999 -99.9 -99.99 -9.99
2019/12/10 02:54 EST    0.46   0.98    8  198    9  47.8  41.9 1006.9 -9.9 -9.999 -99.9 -99.99 -9.99
2019/12/10 03:00 EST    0.42   0.97    8  197    9  47.5  41.9 1006.7 -9.9 -9.999 -99.9 -99.99 -9.99
2019/12/10 03:06 EST    0.40   0.99    8  202    9  47.5  41.7 1006.7 -9.9 -9.999 -99.9 -99.99 -9.99
2019/12/10 03:12 EST    0.39   1.01   10  198   11  47.5  41.5 1006.7 -9.9 -9.999 -99.9 -99.99 -9.99
2019/12/10 03:18 EST    0.38   1.01   10  204   10  47.7  41.5 1006.7 -9.9 -9.999 -99.9 -99.99 -9.99
2019/12/10 03:24 EST    0.39   1.03    8  206   10  47.5  41.5 1006.8 -9.9 -9.999 -99.9 -99.99 -9.99
2019/12/10 03:30 EST    0.40   1.05    8  210    9  47.5  41.5 1006.7 -9.9 -9.999 -99.9 -99.99 -9.99
2019/12/10 03:36 EST    0.42   1.09    8  202    9  47.3  41.4 1006.6 -9.9 -9.999 -99.9 -99.99 -9.99
2019/12/10 03:42 EST    0.46   1.12    7  200   10  46.9  41.4 1006.6 -9.9 -9.999 -99.9 -99.99 -9.99
2019/12/10 03:48 EST    0.50   1.14    9  203   10  46.4  41.5 1006.7 -9.9 -9.999 -99.9 -99.99 -9.99
2019/12/10 03:54 EST    0.55   1.12    8  203    9  47.3  41.5 1006.6 -9.9 -9.999 -99.9 -99.99 -9.99
2019/12/10 04:00 EST    0.61   1.09    8  196    9  46.8  41.5 1006.7 -9.9 -9.999 -99.9 -99.99 -9.99
2019/12/10 04:06 EST    0.68   1.10    8  194    9  46.6  41.5 1006.6 -9.9 -9.999 -99.9 -99.99 -9.99
2019/12/10 04:12 EST    0.76   1.13    8  193    9  46.9  41.5 1006.6 -9.9 -9.999 -99.9 -99.99 -9.99
2019/12/10 04:18 EST    0.85   1.15    8  196    9  47.1  41.5 1006.8 -9.9 -9.999 -99.9 -99.99 -9.99
2019/12/10 04:24 EST    0.94   1.21    9  199   10  46.8  41.5 1006.9 -9.9 -9.999 -99.9 -99.99 -9.99
2019/12/10 04:30 EST    1.04   1.29    8  208    9  46.9  41.5 1007.0 -9.9 -9.999 -99.9 -99.99 -9.99
2019/12/10 04:36 EST    1.15   1.40    7  204    8  47.3  41.5 1007.1 -9.9 -9.999 -99.9 -99.99 -9.99
2019/12/10 04:42 EST    1.27   1.54    8  200   10  46.9  41.5 1007.1 -9.9 -9.999 -99.9 -99.99 -9.99
2019/12/10 04:48 EST    1.39   1.64    9  199   10  46.9  41.7 1006.9 -9.9 -9.999 -99.9 -99.99 -9.99
2019/12/10 04:54 EST    1.52   1.75   10  198   11  47.5  41.7 1006.9 -9.9 -9.999 -99.9 -99.99 -9.99
2019/12/10 05:00 EST    1.65   1.86    9  201   10  47.3  41.7 1006.7 -9.9 -9.999 -99.9 -99.99 -9.99
2019/12/10 05:06 EST    1.78   1.98    8  193    9  47.1  41.7 1006.8 -9.9 -9.999 -99.9 -99.99 -9.99
2019/12/10 05:12 EST    1.92   2.07    8  190    8  46.6  41.7 1006.7 -9.9 -9.999 -99.9 -99.99 -9.99
2019/12/10 05:18 EST    2.06   2.17    7  193    8  47.1  41.7 1006.8 -9.9 -9.999 -99.9 -99.99 -9.99
2019/12/10 05:24 EST    2.21   2.27    7  198    8  46.8  41.7 1007.0 -9.9 -9.999 -99.9 -99.99 -9.99
2019/12/10 05:30 EST    2.35   2.40    7  201    7  46.6  41.7 1007.1 -9.9 -9.999 -99.9 -99.99 -9.99
2019/12/10 05:36 EST    2.50   2.52    8  188    8  46.8  41.7 1007.2 -9.9 -9.999 -99.9 -99.99 -9.99
2019/12/10 05:42 EST    2.65   2.65    7  191    8  46.6  41.7 1007.0 -9.9 -9.999 -99.9 -99.99 -9.99
2019/12/10 05:48 EST    2.79   2.78    7  185    8  46.8  41.7 1007.3 -9.9 -9.999 -99.9 -99.99 -9.99
2019/12/10 05:54 EST    2.94   2.94    7  192    8  46.9  41.7 1007.4 -9.9 -9.999 -99.9 -99.99 -9.99
2019/12/10 06:00 EST    3.09   3.07    7  182    8  47.5  41.5 1007.3 -9.9 -9.999 -99.9 -99.99 -9.99
2019/12/10 06:06 EST    3.23   3.21    7  193    8  47.7  41.5 1007.1 -9.9 -9.999 -99.9 -99.99 -9.99
2019/12/10 06:12 EST    3.38   3.37    8  212   10  48.0  41.4 1007.5 -9.9 -9.999 -99.9 -99.99 -9.99
2019/12/10 06:18 EST    3.52   3.50    7  214    9  48.4  41.4 1007.6 -9.9 -9.999 -99.9 -99.99 -9.99
2019/12/10 06:24 EST    3.67   3.66    6  209    7  47.7  41.4 1007.5 -9.9 -9.999 -99.9 -99.99 -9.99
2019/12/10 06:30 EST    3.81   3.80    5  197    6  46.9  41.2 1007.6 -9.9 -9.999 -99.9 -99.99 -9.99
2019/12/10 06:36 EST    3.95   3.93    5  197    5  46.6  41.2 1007.5 -9.9 -9.999 -99.9 -99.99 -9.99
2019/12/10 06:42 EST    4.09   4.07    5  201    6  46.6  41.2 1007.6 -9.9 -9.999 -99.9 -99.99 -9.99
2019/12/10 06:48 EST    4.22   4.19    5  206    7  46.8  41.2 1007.5 -9.9 -9.999 -99.9 -99.99 -9.99
2019/12/10 06:54 EST    4.36   4.30    3  187    5  46.6  41.2 1007.5 -9.9 -9.999 -99.9 -99.99 -9.99
2019/12/10 07:00 EST    4.49   4.42    3  188    4  46.9  41.2 1007.5 -9.9 -9.999 -99.9 -99.99 -9.99
2019/12/10 07:06 EST    4.62   4.53    4  190    5  47.5  41.2 1007.7 -9.9 -9.999 -99.9 -99.99 -9.99
2019/12/10 07:12 EST    4.75   4.65    4  198    5  47.8  41.2 1007.8 -9.9 -9.999 -99.9 -99.99 -9.99
2019/12/10 07:18 EST    4.88   4.79    5  199    6  47.8  41.2 1007.9 -9.9 -9.999 -99.9 -99.99 -9.99
2019/12/10 07:24 EST    5.00   4.91    5  186    6  48.0  41.2 1007.9 -9.9 -9.999 -99.9 -99.99 -9.99
2019/12/10 07:30 EST    5.12   5.04    6  187    7  48.0  41.2 1007.6 -9.9 -9.999 -99.9 -99.99 -9.99
2019/12/10 07:36 EST    5.24   5.14    5  193    7  48.6  41.2 1007.6 -9.9 -9.999 -99.9 -99.99 -9.99
2019/12/10 07:42 EST    5.36   5.26    5  197    5  48.2  41.2 1007.5 -9.9 -9.999 -99.9 -99.99 -9.99
2019/12/10 07:48 EST    5.47   5.38    5  194    5  47.8  41.2 1007.7 -9.9 -9.999 -99.9 -99.99 -9.99
2019/12/10 07:54 EST    5.58   5.49    6  213    6  47.5  41.2 1007.8 -9.9 -9.999 -99.9 -99.99 -9.99
2019/12/10 08:00 EST    5.69   5.58    4  219    6  46.8  41.2 1008.2 -9.9 -9.999 -99.9 -99.99 -9.99
2019/12/10 08:06 EST    5.79   5.66    5  202    5  46.4  41.2 1008.0 -9.9 -9.999 -99.9 -99.99 -9.99
2019/12/10 08:12 EST    5.89   5.75    5  189    5  46.0  41.2 1008.1 -9.9 -9.999 -99.9 -99.99 -9.99
2019/12/10 08:18 EST    5.99   5.83    6  191    6  46.8  41.2 1008.3 -9.9 -9.999 -99.9 -99.99 -9.99
2019/12/10 08:24 EST    6.08   5.91    5  188    6  47.5  41.2 1008.2 -9.9 -9.999 -99.9 -99.99 -9.99
2019/12/10 08:30 EST    6.17   6.00    4  182    5  48.0  41.2 1008.1 -9.9 -9.999 -99.9 -99.99 -9.99
2019/12/10 08:36 EST    6.25   6.09    4  181    5  48.2  41.2 1008.2 -9.9 -9.999 -99.9 -99.99 -9.99
2019/12/10 08:42 EST    6.32   6.17    4  192    5  48.4  41.2 1008.1 -9.9 -9.999 -99.9 -99.99 -9.99
2019/12/10 08:48 EST    6.39   6.24    5  193    6  48.2  41.2 1008.3 -9.9 -9.999 -99.9 -99.99 -9.99
2019/12/10 08:54 EST    6.45   6.33    5  195    6  48.2  41.2 1008.6 -9.9 -9.999 -99.9 -99.99 -9.99
2019/12/10 09:00 EST    6.50   6.39    5  195    7  47.8  41.2 1008.6 -9.9 -9.999 -99.9 -99.99 -9.99
2019/12/10 09:06 EST    6.55   6.42    4  191    6  47.7  41.2 1008.5 -9.9 -9.999 -99.9 -99.99 -9.99
2019/12/10 09:12 EST    6.59   6.42    5  173    5  47.3  41.2 1008.6 -9.9 -9.999 -99.9 -99.99 -9.99
2019/12/10 09:18 EST    6.62   6.41    5  186    6  47.3  41.2 1008.3 -9.9 -9.999 -99.9 -99.99 -9.99
2019/12/10 09:24 EST    6.64   6.42    4  197    5  47.5  41.2 1008.6 -9.9 -9.999 -99.9 -99.99 -9.99
2019/12/10 09:30 EST    6.65   6.45    4  199    6  47.1  41.2 1008.7 -9.9 -9.999 -99.9 -99.99 -9.99
2019/12/10 09:36 EST    6.65   6.47    4  182    5  46.9  41.2 1008.8 -9.9 -9.999 -99.9 -99.99 -9.99
2019/12/10 09:42 EST    6.64   6.47    4  184    5  47.1  41.2 1008.6 -9.9 -9.999 -99.9 -99.99 -9.99
2019/12/10 09:48 EST    6.62   6.45    5  195    6  47.5  41.2 1008.8 -9.9 -9.999 -99.9 -99.99 -9.99
2019/12/10 09:54 EST    6.59   6.40    4  210    6  47.8  41.2 1009.0 -9.9 -9.999 -99.9 -99.99 -9.99
2019/12/10 10:00 EST    6.56   6.33    3  199    5  48.0  41.2 1009.1 -9.9 -9.999 -99.9 -99.99 -9.99
2019/12/10 10:06 EST    6.51   6.28    4  207    5  48.0  41.2 1009.0 -9.9 -9.999 -99.9 -99.99 -9.99
2019/12/10 10:12 EST    6.45   6.22    4  205    4  48.6  41.2 1009.2 -9.9 -9.999 -99.9 -99.99 -9.99
2019/12/10 10:18 EST    6.39   6.16    4  191    5  48.9  41.2 1008.7 -9.9 -9.999 -99.9 -99.99 -9.99
2019/12/10 10:24 EST    6.31   6.07    4  190    5  48.9  41.2 1008.7 -9.9 -9.999 -99.9 -99.99 -9.99
2019/12/10 10:30 EST    6.23   5.98    4  195    5  48.9  41.2 1008.8 -9.9 -9.999 -99.9 -99.99 -9.99
2019/12/10 10:36 EST    6.14   5.92    4  193    5  48.6  41.2 1008.7 -9.9 -9.999 -99.9 -99.99 -9.99
2019/12/10 10:42 EST    6.04   5.85    4  194    5  48.9  41.2 1008.4 -9.9 -9.999 -99.9 -99.99 -9.99
2019/12/10 10:48 EST    5.93   5.76    5  189    6  48.6  41.2 1008.5 -9.9 -9.999 -99.9 -99.99 -9.99
2019/12/10 10:54 EST    5.82   5.68    7  192    7  48.2  41.2 1008.4 -9.9 -9.999 -99.9 -99.99 -9.99
2019/12/10 11:00 EST    5.70   5.58    7  189    8  47.8  41.2 1008.2 -9.9 -9.999 -99.9 -99.99 -9.99
2019/12/10 11:06 EST    5.57   5.48    6  192    7  48.6  41.2 1008.2 -9.9 -9.999 -99.9 -99.99 -9.99
2019/12/10 11:12 EST    5.44   5.37    5  197    7  48.0  41.2 1008.4 -9.9 -9.999 -99.9 -99.99 -9.99
2019/12/10 11:18 EST    5.31   5.26    6  185    7  47.3  41.2 1008.3 -9.9 -9.999 -99.9 -99.99 -9.99
2019/12/10 11:24 EST    5.17   5.13    7  190    7  47.3  41.2 1007.9 -9.9 -9.999 -99.9 -99.99 -9.99
2019/12/10 11:30 EST    5.03   4.94    6  183    7  48.0  41.2 1007.9 -9.9 -9.999 -99.9 -99.99 -9.99
2019/12/10 11:36 EST    4.88   4.76    6  183    7  48.4  41.2 1007.6 -9.9 -9.999 -99.9 -99.99 -9.99
2019/12/10 11:42 EST    4.73   4.55    6  181    7  48.9  41.2 1007.5 -9.9 -9.999 -99.9 -99.99 -9.99
2019/12/10 11:48 EST    4.59   4.37    5  200    7  49.3  41.2 1007.3 -9.9 -9.999 -99.9 -99.99 -9.99
2019/12/10 11:54 EST    4.43   4.23    5  203    7  49.3  41.2 1007.3 -9.9 -9.999 -99.9 -99.99 -9.99
2019/12/10 12:00 EST    4.28   4.08    7  189    8  49.1  41.2 1007.3 -9.9 -9.999 -99.9 -99.99 -9.99
2019/12/10 12:06 EST    4.13   3.96    9  185    9  48.4  41.2 1007.2 -9.9 -9.999 -99.9 -99.99 -9.99
2019/12/10 12:12 EST    3.98   3.87    9  192   10  48.7  41.2 1007.3 -9.9 -9.999 -99.9 -99.99 -9.99
2019/12/10 12:18 EST    3.83   3.81    8  193    9  48.0  41.2 1007.5 -9.9 -9.999 -99.9 -99.99 -9.99
2019/12/10 12:24 EST    3.67   3.74    8  197    9  46.9  41.2 1007.7 -9.9 -9.999 -99.9 -99.99 -9.99
2019/12/10 12:30 EST    3.52   3.58    8  210    9  47.1  41.2 1007.7 -9.9 -9.999 -99.9 -99.99 -9.99
2019/12/10 12:36 EST    3.37   3.40    8  209    9  47.3  41.2 1008.0 -9.9 -9.999 -99.9 -99.99 -9.99
2019/12/10 12:42 EST    3.22   3.20    8  210    9  47.1  41.2 1008.0 -9.9 -9.999 -99.9 -99.99 -9.99
2019/12/10 12:48 EST    3.07   2.99    7  201    9  47.1  41.2 1008.0 -9.9 -9.999 -99.9 -99.99 -9.99
2019/12/10 12:54 EST    2.92   2.82    7  199    8  46.8  41.2 1007.8 -9.9 -9.999 -99.9 -99.99 -9.99
2019/12/10 13:00 EST    2.78   2.65    8  179    9  46.8  41.2 1008.0 -9.9 -9.999 -99.9 -99.99 -9.99
2019/12/10 13:06 EST    2.63   2.49    9  194    9  46.9  41.2 1007.5 -9.9 -9.999 -99.9 -99.99 -9.99
2019/12/10 13:12 EST    2.49   2.36    9  214   10  46.8  41.2 1008.1 -9.9 -9.999 -99.9 -99.99 -9.99
2019/12/10 13:18 EST    2.34   2.25   10  219   12  47.7  41.2 1008.2 -9.9 -9.999 -99.9 -99.99 -9.99
2019/12/10 13:24 EST    2.20   2.15   10  220   11  48.0  41.4 1008.0 -9.9 -9.999 -99.9 -99.99 -9.99
2019/12/10 13:30 EST    2.06   2.06   10  218   11  48.4  41.4 1007.9 -9.9 -9.999 -99.9 -99.99 -9.99
2019/12/10 13:36 EST    1.92   1.97    8  218   11  48.2  41.4 1008.1 -9.9 -9.999 -99.9 -99.99 -9.99
2019/12/10 13:42 EST    1.79   1.87    7  217    9  48.6  41.5 1007.8 -9.9 -9.999 -99.9 -99.99 -9.99
2019/12/10 13:48 EST    1.65   1.74    9  224   10  48.6  41.5 1007.8 -9.9 -9.999 -99.9 -99.99 -9.99
2019/12/10 13:54 EST    1.52   1.58    9  226   11  48.9  41.7 1008.1 -9.9 -9.999 -99.9 -99.99 -9.99
2019/12/10 14:00 EST    1.39   1.44    8  223   12  49.1  41.9 1008.2 -9.9 -9.999 -99.9 -99.99 -9.99
2019/12/10 14:06 EST    1.26   1.26    8  222   10  50.0  41.9 1008.1 -9.9 -9.999 -99.9 -99.99 -9.99
2019/12/10 14:12 EST    1.14   1.10    9  251   11  49.3  42.1 1008.1 -9.9 -9.999 -99.9 -99.99 -9.99
2019/12/10 14:18 EST    1.01   0.95   11  244   14  51.8  42.3 1008.4 -9.9 -9.999 -99.9 -99.99 -9.99
2019/12/10 14:24 EST    0.90   0.80   11  243   12  52.9  42.8 1008.3 -9.9 -9.999 -99.9 -99.99 -9.99
2019/12/10 14:30 EST    0.78   0.69    9  228   13  52.7  43.3 1008.2 -9.9 -9.999 -99.9 -99.99 -9.99
2019/12/10 14:36 EST    0.67   0.61    6  193    8  51.3  43.3 1008.1 -9.9 -9.999 -99.9 -99.99 -9.99
2019/12/10 14:42 EST    0.57   0.57    6  200    7  47.7  43.5 1008.2 -9.9 -9.999 -99.9 -99.99 -9.99
2019/12/10 14:48 EST    0.47   0.53    6  210    7  47.7  43.7 1008.3 -9.9 -9.999 -99.9 -99.99 -9.99
2019/12/10 14:54 EST    0.38   0.46    5  204    7  47.8  43.7 1008.6 -9.9 -9.999 -99.9 -99.99 -9.99
2019/12/10 15:00 EST    0.29   0.37    6  185    7  47.5  43.7 1008.5 -9.9 -9.999 -99.9 -99.99 -9.99
2019/12/10 15:06 EST    0.21   0.25    5  194    7  47.5  43.5 1008.3 -9.9 -9.999 -99.9 -99.99 -9.99
2019/12/10 15:12 EST    0.14   0.14    4  200    5  47.8  43.0 1008.4 -9.9 -9.999 -99.9 -99.99 -9.99
2019/12/10 15:18 EST    0.07   0.06    5  181    5  47.1  43.0 1008.6 -9.9 -9.999 -99.9 -99.99 -9.99
2019/12/10 15:24 EST    0.02   0.01    4  196    6  47.5  43.5 1008.6 -9.9 -9.999 -99.9 -99.99 -9.99
2019/12/10 15:30 EST   -0.03  -0.05    3  212    5  47.5  43.7 1008.6 -9.9 -9.999 -99.9 -99.99 -9.99
2019/12/10 15:36 EST   -0.07  -0.07    2  191    4  47.7  43.7 1008.8 -9.9 -9.999 -99.9 -99.99 -9.99
2019/12/10 15:42 EST   -0.10  -0.08    3  205    4  47.5  43.3 1008.8 -9.9 -9.999 -99.9 -99.99 -9.99
2019/12/10 15:48 EST   -0.12  -0.06    5  210    6  48.4  43.0 1008.8 -9.9 -9.999 -99.9 -99.99 -9.99
2019/12/10 15:54 EST   -0.13  -0.08    6  207    6  48.7  42.6 1008.9 -9.9 -9.999 -99.9 -99.99 -9.99
2019/12/10 16:00 EST   -0.13  -0.09    6  199    7  48.7  42.3 1009.0 -9.9 -9.999 -99.9 -99.99 -9.99
2019/12/10 16:06 EST   -0.12  -0.12    6  204    8  48.7  41.9 1008.9 -9.9 -9.999 -99.9 -99.99 -9.99
2019/12/10 16:12 EST   -0.10  -0.15    6  207    7  49.3  41.7 1008.9 -9.9 -9.999 -99.9 -99.99 -9.99
2019/12/10 16:18 EST   -0.07  -0.14    7  210    7  49.5  41.7 1009.1 -9.9 -9.999 -99.9 -99.99 -9.99
2019/12/10 16:24 EST   -0.03  -0.10    6  211    8  49.1  41.7 1009.4 -9.9 -9.999 -99.9 -99.99 -9.99
2019/12/10 16:30 EST    0.02  -0.03    6  225    7  47.7  41.9 1009.8 -9.9 -9.999 -99.9 -99.99 -9.99
2019/12/10 16:36 EST    0.08   0.05    7  225    8  48.0  41.9 1010.0 -9.9 -9.999 -99.9 -99.99 -9.99
2019/12/10 16:42 EST    0.15   0.14    7  240    9  47.8  41.9 1010.3 -9.9 -9.999 -99.9 -99.99 -9.99
2019/12/10 16:48 EST    0.22   0.18    7  247   11  49.5  41.9 1010.5 -9.9 -9.999 -99.9 -99.99 -9.99
2019/12/10 16:54 EST    0.31   0.24   10  252   13  50.9  41.9 1010.8 -9.9 -9.999 -99.9 -99.99 -9.99
2019/12/10 17:00 EST    0.40   0.31   12  258   14  52.5  41.9 1010.8 -9.9 -9.999 -99.9 -99.99 -9.99
2019/12/10 17:06 EST    0.50   0.39   10  255   14  52.7  41.9 1010.9 -9.9 -9.999 -99.9 -99.99 -9.99
2019/12/10 17:12 EST    0.60   0.48   10  248   12  52.7  41.9 1010.9 -9.9 -9.999 -99.9 -99.99 -9.99
2019/12/10 17:18 EST    0.71   0.59    9  236   12  52.9  42.1 1011.0 -9.9 -9.999 -99.9 -99.99 -9.99
2019/12/10 17:24 EST    0.83   0.71   10  229   11  52.9  42.1 1010.5 -9.9 -9.999 -99.9 -99.99 -9.99
2019/12/10 17:30 EST    0.95   0.82    8  213   11  50.7  42.1 1010.7 -9.9 -9.999 -99.9 -99.99 -9.99
2019/12/10 17:36 EST    1.08   0.95   10  226   11  49.1  42.1 1010.6 -9.9 -9.999 -99.9 -99.99 -9.99
2019/12/10 17:42 EST    1.21   1.10    9  226   11  49.3  42.1 1010.6 -9.9 -9.999 -99.9 -99.99 -9.99
2019/12/10 17:48 EST    1.34   1.25    9  225   12  48.6  42.1 1010.7 -9.9 -9.999 -99.9 -99.99 -9.99
2019/12/10 17:54 EST    1.48   1.39   10  229   11  48.6  41.9 1010.7 -9.9 -9.999 -99.9 -99.99 -9.99
2019/12/10 18:00 EST    1.61   1.50   10  227   11  48.2  41.9 1011.2 -9.9 -9.999 -99.9 -99.99 -9.99
2019/12/10 18:06 EST    1.75   1.63   10  224   11  48.0  41.7 1011.2 -9.9 -9.999 -99.9 -99.99 -9.99
2019/12/10 18:12 EST    1.89   1.78    9  230   10  47.7  41.7 1011.4 -9.9 -9.999 -99.9 -99.99 -9.99
2019/12/10 18:18 EST    2.03   1.93    7  242    9  47.8  41.5 1011.5 -9.9 -9.999 -99.9 -99.99 -9.99
2019/12/10 18:24 EST    2.17   2.10    6  262    8  49.1  41.5 1011.7 -9.9 -9.999 -99.9 -99.99 -9.99
2019/12/10 18:30 EST    2.31   2.26    8  261    9  50.7  41.5 1011.9 -9.9 -9.999 -99.9 -99.99 -9.99
2019/12/10 18:36 EST    2.45   2.40    8  273   10  51.8  41.5 1012.2 -9.9 -9.999 -99.9 -99.99 -9.99
2019/12/10 18:42 EST    2.59   2.56    8  283   11  52.2  41.5 1012.3 -9.9 -9.999 -99.9 -99.99 -9.99
2019/12/10 18:48 EST    2.73   2.69   10  294   12  52.9  41.5 1012.2 -9.9 -9.999 -99.9 -99.99 -9.99
2019/12/10 18:54 EST    2.87   2.84    9  293   12  53.4  41.5 1012.2 -9.9 -9.999 -99.9 -99.99 -9.99
2019/12/10 19:00 EST    3.01   2.97   10  295   13  53.4  41.5 1012.6 -9.9 -9.999 -99.9 -99.99 -9.99
2019/12/10 19:06 EST    3.15   3.10   11  310   17  53.2  41.5 1012.6 -9.9 -9.999 -99.9 -99.99 -9.99
2019/12/10 19:12 EST    3.28   3.21   17  315   19  53.2  41.5 1012.7 -9.9 -9.999 -99.9 -99.99 -9.99
2019/12/10 19:18 EST    3.41   3.33   17  338   23  53.2  41.5 1012.8 -9.9 -9.999 -99.9 -99.99 -9.99
2019/12/10 19:24 EST    3.55   3.44   15  340   24  52.5  41.5 1012.8 -9.9 -9.999 -99.9 -99.99 -9.99
2019/12/10 19:30 EST    3.68   3.56   11  333   18  51.6  41.5 1013.0 -9.9 -9.999 -99.9 -99.99 -9.99
2019/12/10 19:36 EST    3.81   3.65   12  329   16  51.1  41.5 1013.2 -9.9 -9.999 -99.9 -99.99 -9.99
2019/12/10 19:42 EST    3.94   3.76   12  329   16  50.7  41.5 1013.3 -9.9 -9.999 -99.9 -99.99 -9.99
2019/12/10 19:48 EST    4.06   3.86   14  323   18  50.2  41.5 1013.8 -9.9 -9.999 -99.9 -99.99 -9.99
2019/12/10 19:54 EST    4.19   3.95   15  323   20  49.8  41.5 1013.6 -9.9 -9.999 -99.9 -99.99 -9.99
2019/12/10 20:00 EST    4.31   4.08    8  324   14  49.8  41.5 1013.7 -9.9 -9.999 -99.9 -99.99 -9.99
2019/12/10 20:06 EST    4.43   4.20    4  344   11  49.3  41.5 1013.4 -9.9 -9.999 -99.9 -99.99 -9.99
2019/12/10 20:12 EST    4.55   4.36    8  321   13  49.5  41.5 1013.1 -9.9 -9.999 -99.9 -99.99 -9.99
2019/12/10 20:18 EST    4.66   4.50    7  313    9  49.6  41.5 1013.1 -9.9 -9.999 -99.9 -99.99 -9.99
2019/12/10 20:24 EST    4.77   4.62    5  303    9  49.5  41.5 1013.3 -9.9 -9.999 -99.9 -99.99 -9.99
2019/12/10 20:30 EST    4.88   4.74    6  294    8  49.3  41.5 1013.5 -9.9 -9.999 -99.9 -99.99 -9.99
2019/12/10 20:36 EST    4.99   4.86    7  292    9  48.9  41.5 1014.0 -9.9 -9.999 -99.9 -99.99 -9.99
2019/12/10 20:42 EST    5.09   4.98    6  292    7  48.9  41.4 1014.3 -9.9 -9.999 -99.9 -99.99 -9.99
2019/12/10 20:48 EST    5.19   5.08    6  303    8  48.6  41.4 1014.6 -9.9 -9.999 -99.9 -99.99 -9.99
2019/12/10 20:54 EST    5.28   5.17    7  300   10  48.7  41.4 1014.7 -9.9 -9.999 -99.9 -99.99 -9.99
2019/12/10 21:00 EST    5.37   5.23   13  313   21  48.7  41.4 1014.7 -9.9 -9.999 -99.9 -99.99 -9.99
2019/12/10 21:06 EST    5.45   5.26   18  316   24  48.6  41.4 1014.8 -9.9 -9.999 -99.9 -99.99 -9.99
2019/12/10 21:12 EST    5.52   5.29   14  309   23  48.2  41.4 1014.9 -9.9 -9.999 -99.9 -99.99 -9.99
2019/12/10 21:18 EST    5.59   5.32   14  304   21  47.8  41.4 1015.0 -9.9 -9.999 -99.9 -99.99 -9.99
2019/12/10 21:24 EST    5.65   5.34   14  302   23  47.7  41.4 1015.3 -9.9 -9.999 -99.9 -99.99 -9.99
2019/12/10 21:30 EST    5.70   5.41   13  314   19  47.3  41.4 1015.0 -9.9 -9.999 -99.9 -99.99 -9.99
2019/12/10 21:36 EST    5.75   5.49   12  301   16  47.1  41.4 1014.8 -9.9 -9.999 -99.9 -99.99 -9.99
2019/12/10 21:42 EST    5.79   5.53   10  304   15  46.8  41.4 1015.4 -9.9 -9.999 -99.9 -99.99 -9.99
2019/12/10 21:48 EST    5.81   5.57    7  307   11  46.6  41.4 1015.4 -9.9 -9.999 -99.9 -99.99 -9.99
2019/12/10 21:54 EST    5.83   5.60    9  300   11  46.2  41.4 1015.3 -9.9 -9.999 -99.9 -99.99 -9.99
2019/12/10 22:00 EST    5.84   5.65    9  296   13  46.0  41.4 1016.2 -9.9 -9.999 -99.9 -99.99 -9.99
2019/12/10 22:06 EST    5.84   5.67    6  293   10  45.9  41.4 1016.3 -9.9 -9.999 -99.9 -99.99 -9.99
2019/12/10 22:12 EST    5.83   5.69    4  289    7  45.5  41.4 1016.3 -9.9 -9.999 -99.9 -99.99 -9.99
2019/12/10 22:18 EST    5.82   5.68    6  296    9  45.1  41.4 1016.0 -9.9 -9.999 -99.9 -99.99 -9.99
2019/12/10 22:24 EST    5.79   5.65    5  295    7  45.1  41.4 1016.1 -9.9 -9.999 -99.9 -99.99 -9.99
2019/12/10 22:30 EST    5.75   5.59    5  290    7  45.0  41.4 1016.5 -9.9 -9.999 -99.9 -99.99 -9.99
2019/12/10 22:36 EST    5.70   5.51    3  291    6  44.8  41.4 1016.4 -9.9 -9.999 -99.9 -99.99 -9.99
2019/12/10 22:42 EST    5.65   5.41    5  292    7  44.6  41.4 1016.2 -9.9 -9.999 -99.9 -99.99 -9.99
2019/12/10 22:48 EST    5.58   5.33    5  293    6  44.6  41.5 1016.4 -9.9 -9.999 -99.9 -99.99 -9.99
2019/12/10 22:54 EST    5.51   5.26    4  292    6  44.4  41.5 1016.6 -9.9 -9.999 -99.9 -99.99 -9.99
2019/12/10 23:00 EST    5.42   5.20    5  305    6  44.2  41.5 1016.8 -9.9 -9.999 -99.9 -99.99 -9.99
2019/12/10 23:06 EST    5.33   5.16    7  305    8  44.2  41.5 1016.7 -9.9 -9.999 -99.9 -99.99 -9.99
2019/12/10 23:12 EST    5.24   5.08    5  310    8  44.1  41.5 1016.9 -9.9 -9.999 -99.9 -99.99 -9.99
2019/12/10 23:18 EST    5.13   4.98    6  302    7  43.9  41.5 1016.9 -9.9 -9.999 -99.9 -99.99 -9.99
2019/12/10 23:24 EST    5.02   4.87    6  337    7  43.7  41.5 1017.1 -9.9 -9.999 -99.9 -99.99 -9.99
2019/12/10 23:30 EST    4.91   4.71    7  346   11  43.5  41.5 1017.0 -9.9 -9.999 -99.9 -99.99 -9.99
2019/12/10 23:36 EST    4.79   4.52    6  347   11  43.3  41.4 1016.8 -9.9 -9.999 -99.9 -99.99 -9.99
2019/12/10 23:42 EST    4.67   4.35    5  357   13  43.2  41.4 1017.1 -9.9 -9.999 -99.9 -99.99 -9.99
2019/12/10 23:48 EST    4.54   4.20    9  351   15  42.6  41.4 1016.9 -9.9 -9.999 -99.9 -99.99 -9.99
2019/12/10 23:54 EST    4.41   4.05    9  348   13  42.1  41.4 1016.6 -9.9 -9.999 -99.9 -99.99 -9.99
2019/12/11 00:00 EST    4.27   3.93    5  346   11  41.9  41.4 1016.8 -9.9 -9.999 -99.9 -99.99 -9.99
2019/12/11 00:06 EST    4.14   3.81    4  358    9  41.7  41.4 1017.0 -9.9 -9.999 -99.9 -99.99 -9.99
2019/12/11 00:12 EST    4.00   3.68    4   45    9  41.7  41.4 1017.2 -9.9 -9.999 -99.9 -99.99 -9.99
2019/12/11 00:18 EST    3.86   3.56    3   29    7  40.8  41.4 1017.1 -9.9 -9.999 -99.9 -99.99 -9.99
2019/12/11 00:24 EST    3.73   3.45    3  357    9  40.3  41.4 1017.4 -9.9 -9.999 -99.9 -99.99 -9.99
2019/12/11 00:30 EST    3.59   3.33    3   57    8  39.9  41.4 1017.5 -9.9 -9.999 -99.9 -99.99 -9.99
2019/12/11 00:36 EST    3.45   3.21    2    4    7  39.7  41.4 1017.2 -9.9 -9.999 -99.9 -99.99 -9.99
2019/12/11 00:42 EST    3.31   3.08    2   44    8  39.7  41.4 1017.5 -9.9 -9.999 -99.9 -99.99 -9.99
2019/12/11 00:48 EST    3.18   2.93    4   53   10  39.6  41.4 1017.7 -9.9 -9.999 -99.9 -99.99 -9.99
2019/12/11 00:54 EST    3.04   2.75    3   40    9  38.7  41.4 1017.3 -9.9 -9.999 -99.9 -99.99 -9.99
2019/12/11 01:00 EST    2.91   2.56    5   35   10  37.8  41.4 1017.8 -9.9 -9.999 -99.9 -99.99 -9.99
2019/12/11 01:06 EST    2.77   2.37    5   20   11  37.6  41.5 1017.9 -9.9 -9.999 -99.9 -99.99 -9.99
2019/12/11 01:12 EST    2.64   2.21    5   11    9  37.4  41.5 1018.4 -9.9 -9.999 -99.9 -99.99 -9.99
2019/12/11 01:18 EST    2.51   2.05    5   14   13  37.2  41.4 1018.4 -9.9 -9.999 -99.9 -99.99 -9.99
2019/12/11 01:24 EST    2.39   1.93    3   16   10  37.0  41.4 1018.5 -9.9 -9.999 -99.9 -99.99 -9.99
2019/12/11 01:30 EST    2.26   1.81    3   66   10  36.9  41.4 1018.4 -9.9 -9.999 -99.9 -99.99 -9.99
2019/12/11 01:36 EST    2.14   1.70    3   11   10  36.9  41.5 1018.2 -9.9 -9.999 -99.9 -99.99 -9.99
2019/12/11 01:42 EST    2.02   1.60    4    4    9  36.5  41.5 1018.3 -9.9 -9.999 -99.9 -99.99 -9.99
2019/12/11 01:48 EST    1.90   1.51    4    1   10  36.5  41.5 1018.9 -9.9 -9.999 -99.9 -99.99 -9.99
2019/12/11 01:54 EST    1.78   1.41    4  360    8  36.3  41.5 1018.9 -9.9 -9.999 -99.9 -99.99 -9.99
2019/12/11 02:00 EST    1.67   1.32    4   13    9  36.1  41.7 1019.0 -9.9 -9.999 -99.9 -99.99 -9.99
2019/12/11 02:06 EST    1.56   1.21    6    2   12  36.0  41.7 1018.8 -9.9 -9.999 -99.9 -99.99 -9.99
2019/12/11 02:12 EST    1.45   1.10    5    8   13  35.6  41.7 1019.1 -9.9 -9.999 -99.9 -99.99 -9.99
2019/12/11 02:18 EST    1.35   0.98    5    5   13  35.2  41.7 1019.6 -9.9 -9.999 -99.9 -99.99 -9.99
2019/12/11 02:24 EST    1.24   0.86    4   23   11  35.1  41.7 1019.8 -9.9 -9.999 -99.9 -99.99 -9.99
2019/12/11 02:30 EST    1.14   0.73    5    5   10  35.1  41.7 1019.7 -9.9 -9.999 -99.9 -99.99 -9.99
2019/12/11 02:36 EST    1.05   0.63    5    7   10  34.9  41.7 1019.9 -9.9 -9.999 -99.9 -99.99 -9.99
2019/12/11 02:42 EST    0.96   0.55    4    1   10  34.9  41.7 1020.1 -9.9 -9.999 -99.9 -99.99 -9.99
2019/12/11 02:48 EST    0.87   0.47    6  359   11  35.1  41.7 1020.0 -9.9 -9.999 -99.9 -99.99 -9.99
2019/12/11 02:54 EST    0.79   0.40    4    9   10  35.1  41.7 1020.3 -9.9 -9.999 -99.9 -99.99 -9.99
2019/12/11 03:00 EST    0.71   0.33    3   12   10  35.1  41.7 1020.5 -9.9 -9.999 -99.9 -99.99 -9.99
2019/12/11 03:06 EST    0.64   0.26    3    9    8  34.7  41.7 1020.3 -9.9 -9.999 -99.9 -99.99 -9.99
2019/12/11 03:12 EST    0.57   0.18    3   22    6  34.5  41.7 1020.6 -9.9 -9.999 -99.9 -99.99 -9.99
2019/12/11 03:18 EST    0.51   0.11    3   27    7  34.5  41.7 1020.6 -9.9 -9.999 -99.9 -99.99 -9.99
2019/12/11 03:24 EST    0.46   0.05    6   16    9  34.3  41.7 1020.7 -9.9 -9.999 -99.9 -99.99 -9.99
2019/12/11 03:30 EST    0.41  -0.02    4   12   10  34.3  41.7 1021.1 -9.9 -9.999 -99.9 -99.99 -9.99
2019/12/11 03:36 EST    0.37  -0.06    4   24   11  34.5  41.7 1021.5 -9.9 -9.999 -99.9 -99.99 -9.99
2019/12/11 03:42 EST    0.34  -0.06    3   26   10  34.3  41.7 1020.8 -9.9 -9.999 -99.9 -99.99 -9.99
2019/12/11 03:48 EST    0.32  -0.06    4   33   11  34.2  41.7 1020.7 -9.9 -9.999 -99.9 -99.99 -9.99
2019/12/11 03:54 EST    0.31  -0.05    2   31    8  34.0  41.7 1020.7 -9.9 -9.999 -99.9 -99.99 -9.99
2019/12/11 04:00 EST    0.30  -0.02    5    4   10  34.0  41.7 1021.1 -9.9 -9.999 -99.9 -99.99 -9.99
2019/12/11 04:06 EST    0.31  -0.00    5   13   10  33.6  41.7 1021.5 -9.9 -9.999 -99.9 -99.99 -9.99
2019/12/11 04:12 EST    0.32   0.03    6    8   11  33.4  41.7 1021.4 -9.9 -9.999 -99.9 -99.99 -9.99
2019/12/11 04:18 EST    0.35   0.08    4   17   10  33.4  41.7 1021.9 -9.9 -9.999 -99.9 -99.99 -9.99
2019/12/11 04:24 EST    0.38   0.14    4   20   10  33.3  41.7 1021.7 -9.9 -9.999 -99.9 -99.99 -9.99
2019/12/11 04:30 EST    0.43   0.19    5   28   13  33.1  41.7 1021.8 -9.9 -9.999 -99.9 -99.99 -9.99
2019/12/11 04:36 EST    0.48   0.26    5   22   13  32.5  41.7 1021.5 -9.9 -9.999 -99.9 -99.99 -9.99
2019/12/11 04:42 EST    0.54   0.32    6   25   10  32.2  41.7 1021.8 -9.9 -9.999 -99.9 -99.99 -9.99
2019/12/11 04:48 EST    0.62   0.36    5   21   14  31.8  41.7 1021.8 -9.9 -9.999 -99.9 -99.99 -9.99
2019/12/11 04:54 EST    0.70   0.40    6   32   12  31.8  41.7 1021.6 -9.9 -9.999 -99.9 -99.99 -9.99
2019/12/11 05:00 EST    0.79   0.46    4   29    9  31.5  41.7 1021.4 -9.9 -9.999 -99.9 -99.99 -9.99
2019/12/11 05:06 EST    0.89   0.52    4   12    9  31.5  41.7 1021.7 -9.9 -9.999 -99.9 -99.99 -9.99
2019/12/11 05:12 EST    1.00   0.59    4   37   11  31.5  41.7 1021.8 -9.9 -9.999 -99.9 -99.99 -9.99
2019/12/11 05:18 EST    1.11   0.71    5   36   11  31.3  41.7 1022.1 -9.9 -9.999 -99.9 -99.99 -9.99
2019/12/11 05:24 EST    1.23   0.84    5   32   13  30.9  41.7 1021.9 -9.9 -9.999 -99.9 -99.99 -9.99
2019/12/11 05:30 EST    1.36   1.00    7   32   13  30.7  41.7 1022.0 -9.9 -9.999 -99.9 -99.99 -9.99
2019/12/11 05:36 EST    1.50   1.19    5   16   14  30.6  41.7 1022.0 -9.9 -9.999 -99.9 -99.99 -9.99
2019/12/11 05:42 EST    1.63   1.36    5   22   12  30.2  41.7 1021.8 -9.9 -9.999 -99.9 -99.99 -9.99
2019/12/11 05:48 EST    1.78   1.50    5   21   10  30.2  41.7 1022.0 -9.9 -9.999 -99.9 -99.99 -9.99
2019/12/11 05:54 EST    1.93   1.62    5   13    9  30.2  41.5 1022.5 -9.9 -9.999 -99.9 -99.99 -9.99
2019/12/11 06:00 EST    2.08   1.75    5    7   12  30.2  41.7 1022.7 -9.9 -9.999 -99.9 -99.99 -9.99
2019/12/11 06:06 EST    2.23   1.84    4   25    9  30.0  41.7 1022.9 -9.9 -9.999 -99.9 -99.99 -9.99
2019/12/11 06:12 EST    2.39   1.91    4  356   11  30.2  41.7 1022.8 -9.9 -9.999 -99.9 -99.99 -9.99
2019/12/11 06:18 EST    2.54   2.00    3   18   12  30.0  41.7 1022.9 -9.9 -9.999 -99.9 -99.99 -9.99
2019/12/11 06:24 EST    2.70   2.14    4   32    8  29.8  41.7 1022.5 -9.9 -9.999 -99.9 -99.99 -9.99
2019/12/11 06:30 EST    2.86   2.34    3   17    6  29.8  41.5 1022.5 -9.9 -9.999 -99.9 -99.99 -9.99
2019/12/11 06:36 EST    3.02   2.56    5   34   10  30.0  41.5 1022.9 -9.9 -9.999 -99.9 -99.99 -9.99
2019/12/11 06:42 EST    3.18   2.78    4   36    8  29.8  41.5 1022.9 -9.9 -9.999 -99.9 -99.99 -9.99
2019/12/11 06:48 EST    3.33   3.00    3   26    8  30.0  41.5 1022.8 -9.9 -9.999 -99.9 -99.99 -9.99
2019/12/11 06:54 EST    3.49   3.18    2  243    7  29.8  41.5 1023.1 -9.9 -9.999 -99.9 -99.99 -9.99
2019/12/11 07:00 EST    3.64   3.35    3   31    6  29.8  41.5 1024.0 -9.9 -9.999 -99.9 -99.99 -9.99
2019/12/11 07:06 EST    3.79   3.49    3   38    6  30.0  41.5 1023.8 -9.9 -9.999 -99.9 -99.99 -9.99
2019/12/11 07:12 EST    3.94   3.62    2   29    6  30.0  41.5 1024.1 -9.9 -9.999 -99.9 -99.99 -9.99
2019/12/11 07:18 EST    4.09   3.74    2   59    6  30.0  41.5 1024.1 -9.9 -9.999 -99.9 -99.99 -9.99
2019/12/11 07:24 EST    4.24   3.87    2   26    5  30.0  41.5 1023.9 -9.9 -9.999 -99.9 -99.99 -9.99
2019/12/11 07:30 EST    4.38   4.00    2   15    7  29.8  41.5 1024.1 -9.9 -9.999 -99.9 -99.99 -9.99
2019/12/11 07:36 EST    4.52   4.12    2   48    5  29.5  41.5 1024.2 -9.9 -9.999 -99.9 -99.99 -9.99
2019/12/11 07:42 EST    4.66   4.27    2  358    7  29.7  41.5 1024.3 -9.9 -9.999 -99.9 -99.99 -9.99
2019/12/11 07:48 EST    4.79   4.41    1    6    5  29.5  41.5 1024.4 -9.9 -9.999 -99.9 -99.99 -9.99
2019/12/11 07:54 EST    4.92   4.54    2   17    6  29.5  41.5 1024.4 -9.9 -9.999 -99.9 -99.99 -9.99
2019/12/11 08:00 EST    5.05   4.66    2   17    9  29.3  41.5 1024.6 -9.9 -9.999 -99.9 -99.99 -9.99
2019/12/11 08:06 EST    5.18   4.79    1  353    7  29.3  41.7 1024.6 -9.9 -9.999 -99.9 -99.99 -9.99
2019/12/11 08:12 EST    5.30   4.90    2  343    8  29.3  41.7 1024.5 -9.9 -9.999 -99.9 -99.99 -9.99
2019/12/11 08:18 EST    5.42   5.01    3  342    7  29.5  41.9 1024.8 -9.9 -9.999 -99.9 -99.99 -9.99
2019/12/11 08:24 EST    5.53   5.12    3  342    7  29.7  41.9 1024.9 -9.9 -9.999 -99.9 -99.99 -9.99
2019/12/11 08:30 EST    5.65   5.24    2   12    6  29.7  41.9 1024.9 -9.9 -9.999 -99.9 -99.99 -9.99
2019/12/11 08:36 EST    5.76   5.37    3    7    7  29.8  41.9 1025.0 -9.9 -9.999 -99.9 -99.99 -9.99
2019/12/11 08:42 EST    5.86   5.50    3    7    7  30.0  41.9 1025.2 -9.9 -9.999 -99.9 -99.99 -9.99
2019/12/11 08:48 EST    5.96   5.63    3  356    7  30.0  41.9 1025.5 -9.9 -9.999 -99.9 -99.99 -9.99
2019/12/11 08:54 EST    6.06   5.73    2    3    7  30.0  41.9 1025.5 -9.9 -9.999 -99.9 -99.99 -9.99
2019/12/11 09:00 EST    6.16   5.81    5  348   12  29.8  41.9 1025.7 -9.9 -9.999 -99.9 -99.99 -9.99
2019/12/11 09:06 EST    6.24   5.86    3    2   13  29.5  41.9 1025.6 -9.9 -9.999 -99.9 -99.99 -9.99
2019/12/11 09:12 EST    6.33   5.90    2  347    7  29.1  41.9 1025.5 -9.9 -9.999 -99.9 -99.99 -9.99
2019/12/11 09:18 EST    6.40   5.96    2  348    9  29.5  41.9 1025.8 -9.9 -9.999 -99.9 -99.99 -9.99
2019/12/11 09:24 EST    6.47   6.01    2   23    7  29.1  41.9 1025.9 -9.9 -9.999 -99.9 -99.99 -9.99
2019/12/11 09:30 EST    6.54   6.09    1  338    6  28.8  41.9 1025.9 -9.9 -9.999 -99.9 -99.99 -9.99
2019/12/11 09:36 EST    6.60   6.17    2   34    6  28.6  41.9 1026.3 -9.9 -9.999 -99.9 -99.99 -9.99
2019/12/11 09:42 EST    6.65   6.25    1   73    4  28.6  41.9 1026.2 -9.9 -9.999 -99.9 -99.99 -9.99
2019/12/11 09:48 EST    6.69   6.31    2   76    5  28.8  41.9 1026.0 -9.9 -9.999 -99.9 -99.99 -9.99
2019/12/11 09:54 EST    6.72   6.35    1   42    4  28.6  41.9 1025.9 -9.9 -9.999 -99.9 -99.99 -9.99
2019/12/11 10:00 EST    6.75   6.38    1   73    3  28.8  41.9 1025.9 -9.9 -9.999 -99.9 -99.99 -9.99
2019/12/11 10:06 EST    6.77   6.37    2   96    4  28.8  41.9 1025.6 -9.9 -9.999 -99.9 -99.99 -9.99
2019/12/11 10:12 EST    6.77   6.37    1   34    2  28.6  41.9 1025.6 -9.9 -9.999 -99.9 -99.99 -9.99
2019/12/11 10:18 EST    6.77   6.36    1  124    3  28.9  41.9 1025.3 -9.9 -9.999 -99.9 -99.99 -9.99
2019/12/11 10:24 EST    6.76   6.34    0  150    2  29.3  41.9 1025.5 -9.9 -9.999 -99.9 -99.99 -9.99
2019/12/11 10:30 EST    6.74   6.31    0  349    1  29.5  41.9 1025.7 -9.9 -9.999 -99.9 -99.99 -9.99
2019/12/11 10:36 EST    6.71   6.26    1   68    2  30.2  41.9 1025.5 -9.9 -9.999 -99.9 -99.99 -9.99
2019/12/11 10:42 EST    6.67   6.20    0  174    2  30.2  41.9 1025.5 -9.9 -9.999 -99.9 -99.99 -9.99
2019/12/11 10:48 EST    6.62   6.13    2  260    4  30.2  41.9 1025.6 -9.9 -9.999 -99.9 -99.99 -9.99
2019/12/11 10:54 EST    6.56   6.06    2  261    4  30.0  41.9 1025.6 -9.9 -9.999 -99.9 -99.99 -9.99
2019/12/11 11:00 EST    6.49   5.95    3  262    4  29.7  41.9 1025.6 -9.9 -9.999 -99.9 -99.99 -9.99
2019/12/11 11:06 EST    6.41   5.81    2  230    4  30.2  42.1 1025.5 -9.9 -9.999 -99.9 -99.99 -9.99
2019/12/11 11:12 EST    6.32   5.67    4  277    5  30.2  42.1 1025.2 -9.9 -9.999 -99.9 -99.99 -9.99
2019/12/11 11:18 EST    6.23   5.53    5  296    7  30.4  42.1 1025.2 -9.9 -9.999 -99.9 -99.99 -9.99
2019/12/11 11:24 EST    6.12   5.40    4  298    5  30.4  42.3 1025.1 -9.9 -9.999 -99.9 -99.99 -9.99
2019/12/11 11:30 EST    6.01   5.30    4  300    6  30.4  42.3 1025.0 -9.9 -9.999 -99.9 -99.99 -9.99
2019/12/11 11:36 EST    5.89   5.22    3  311    5  30.6  42.3 1024.9 -9.9 -9.999 -99.9 -99.99 -9.99
2019/12/11 11:42 EST    5.76   5.13    3  264    4  30.7  42.3 1024.7 -9.9 -9.999 -99.9 -99.99 -9.99
2019/12/11 11:48 EST    5.63   5.04    2  253    4  30.9  42.3 1024.5 -9.9 -9.999 -99.9 -99.99 -9.99
2019/12/11 11:54 EST    5.49   4.94    1  248    4  31.1  42.3 1024.3 -9.9 -9.999 -99.9 -99.99 -9.99
2019/12/11 12:00 EST    5.35   4.83    1  323    3  31.5  42.3 1024.1 -9.9 -9.999 -99.9 -99.99 -9.99
2019/12/11 12:06 EST    5.20   4.68    1  277    2  31.6  42.3 1024.0 -9.9 -9.999 -99.9 -99.99 -9.99
2019/12/11 12:12 EST    5.05   4.51    1  287    2  31.6  42.3 1024.0 -9.9 -9.999 -99.9 -99.99 -9.99
2019/12/11 12:18 EST    4.89   4.30    3  308    5  32.4  42.3 1024.0 -9.9 -9.999 -99.9 -99.99 -9.99
2019/12/11 12:24 EST    4.73   4.09    4  300    6  32.0  42.3 1024.0 -9.9 -9.999 -99.9 -99.99 -9.99
2019/12/11 12:30 EST    4.57   3.87    5  296    7  32.2  42.3 1024.0 -9.9 -9.999 -99.9 -99.99 -9.99
2019/12/11 12:36 EST    4.41   3.69    5  302    7  32.4  42.1 1024.0 -9.9 -9.999 -99.9 -99.99 -9.99
2019/12/11 12:42 EST    4.25   3.54    5  284    7  32.2  42.1 1024.0 -9.9 -9.999 -99.9 -99.99 -9.99
2019/12/11 12:48 EST    4.09   3.43    6  276    7  32.4  42.1 1024.0 -9.9 -9.999 -99.9 -99.99 -9.99
2019/12/11 12:54 EST    3.93   3.33    2  279    5  32.4  42.1 1024.0 -9.9 -9.999 -99.9 -99.99 -9.99
2019/12/11 13:00 EST    3.76   3.26    3  243    5  32.7  42.1 1023.9 -9.9 -9.999 -99.9 -99.99 -9.99
2019/12/11 13:06 EST    3.60   3.17    4  289    6  32.7  41.9 1023.8 -9.9 -9.999 -99.9 -99.99 -9.99
2019/12/11 13:12 EST    3.44   3.02    5  295    7  32.9  41.9 1023.8 -9.9 -9.999 -99.9 -99.99 -9.99
2019/12/11 13:18 EST    3.28   2.83    7  303   11  33.1  41.9 1023.6 -9.9 -9.999 -99.9 -99.99 -9.99
2019/12/11 13:24 EST    3.12   2.61    4  308    7  32.7  41.7 1023.6 -9.9 -9.999 -99.9 -99.99 -9.99
2019/12/11 13:30 EST    2.96   2.43    5  276    7  33.1  41.7 1023.5 -9.9 -9.999 -99.9 -99.99 -9.99
2019/12/11 13:36 EST    2.81   2.25    6  299    8  33.3  41.7 1023.5 -9.9 -9.999 -99.9 -99.99 -9.99
2019/12/11 13:42 EST    2.66   2.09    8  309   10  33.3  41.7 1023.5 -9.9 -9.999 -99.9 -99.99 -9.99
2019/12/11 13:48 EST    2.50   1.97    7  299    9  33.4  41.9 1023.6 -9.9 -9.999 -99.9 -99.99 -9.99
2019/12/11 13:54 EST    2.35   1.87    5  302    7  33.4  41.9 1023.6 -9.9 -9.999 -99.9 -99.99 -9.99
2019/12/11 14:00 EST    2.21   1.80    5  292    6  33.4  41.9 1023.7 -9.9 -9.999 -99.9 -99.99 -9.99
2019/12/11 14:06 EST    2.06   1.71    5  304    7  33.4  41.9 1023.6 -9.9 -9.999 -99.9 -99.99 -9.99
2019/12/11 14:12 EST    1.92   1.59    4  296    6  33.4  41.9 1023.5 -9.9 -9.999 -99.9 -99.99 -9.99
2019/12/11 14:18 EST    1.77   1.45    4  232    7  33.6  41.9 1023.6 -9.9 -9.999 -99.9 -99.99 -9.99
2019/12/11 14:24 EST    1.64   1.29    7  251   10  33.8  41.9 1023.7 -9.9 -9.999 -99.9 -99.99 -9.99
2019/12/11 14:30 EST    1.50   1.13    6  274    9  33.8  41.9 1023.8 -9.9 -9.999 -99.9 -99.99 -9.99
2019/12/11 14:36 EST    1.37   0.97    5  267    9  34.0  41.9 1023.7 -9.9 -9.999 -99.9 -99.99 -9.99
2019/12/11 14:42 EST    1.23   0.83    6  272    7  34.3  41.9 1023.6 -9.9 -9.999 -99.9 -99.99 -9.99
2019/12/11 14:48 EST    1.11   0.69    7  266    9  34.0  41.9 1023.5 -9.9 -9.999 -99.9 -99.99 -9.99
2019/12/11 14:54 EST    0.98   0.55    5  274    8  34.2  41.9 1023.7 -9.9 -9.999 -99.9 -99.99 -9.99
2019/12/11 15:00 EST    0.86 -99.99 -999 -999 -999 -99.9 -99.9 -999.9 -9.9 -9.999 -99.9 -99.99 -9.99
2019/12/11 15:06 EST    0.74   0.30    5  266    7  34.5  41.9 1023.6 -9.9 -9.999 -99.9 -99.99 -9.99
2019/12/11 15:12 EST    0.63   0.20    4  256    6  34.7  42.1 1023.6 -9.9 -9.999 -99.9 -99.99 -9.99
2019/12/11 15:18 EST    0.52   0.10    4  241    5  35.1  42.1 1023.8 -9.9 -9.999 -99.9 -99.99 -9.99
2019/12/11 15:24 EST    0.42  -0.03    5  249    6  35.4  42.3 1023.8 -9.9 -9.999 -99.9 -99.99 -9.99
2019/12/11 15:30 EST    0.32  -0.14    5  255    7  35.2  42.3 1023.9 -9.9 -9.999 -99.9 -99.99 -9.99
2019/12/11 15:36 EST    0.23  -0.23    5  255    7  35.1  42.3 1023.9 -9.9 -9.999 -99.9 -99.99 -9.99
2019/12/11 15:42 EST    0.14  -0.30    6  241    8  35.2  42.3 1024.1 -9.9 -9.999 -99.9 -99.99 -9.99
2019/12/11 15:48 EST    0.06  -0.37    7  248    9  34.9  42.3 1024.2 -9.9 -9.999 -99.9 -99.99 -9.99
2019/12/11 15:54 EST   -0.01  -0.43    6  245    7  34.5  42.1 1024.3 -9.9 -9.999 -99.9 -99.99 -9.99
2019/12/11 16:00 EST   -0.08  -0.45    5  251    8  34.9  42.1 1024.2 -9.9 -9.999 -99.9 -99.99 -9.99
2019/12/11 16:06 EST   -0.13  -0.49    6  246    7  34.3  42.1 1024.3 -9.9 -9.999 -99.9 -99.99 -9.99
2019/12/11 16:12 EST   -0.18  -0.53    5  257    7  34.7  42.1 1024.4 -9.9 -9.999 -99.9 -99.99 -9.99
2019/12/11 16:18 EST   -0.22  -0.58    6  255    7  34.7  42.1 1024.3 -9.9 -9.999 -99.9 -99.99 -9.99
2019/12/11 16:24 EST   -0.25  -0.64    6  260    7  34.7  42.1 1024.3 -9.9 -9.999 -99.9 -99.99 -9.99
2019/12/11 16:30 EST   -0.27  -0.67    6  260    7  34.7  41.9 1024.3 -9.9 -9.999 -99.9 -99.99 -9.99
2019/12/11 16:36 EST   -0.28  -0.71    6  270    8  34.7  41.9 1024.4 -9.9 -9.999 -99.9 -99.99 -9.99
2019/12/11 16:42 EST   -0.28  -0.71    5  267    7  34.7  41.9 1024.5 -9.9 -9.999 -99.9 -99.99 -9.99
2019/12/11 16:48 EST   -0.27  -0.69    6  279    8  34.9  41.9 1024.7 -9.9 -9.999 -99.9 -99.99 -9.99
2019/12/11 16:54 EST   -0.24  -0.64    6  280    7  34.7  41.9 1024.8 -9.9 -9.999 -99.9 -99.99 -9.99
2019/12/11 17:00 EST   -0.21  -0.55    7  286    9  34.7  41.9 1024.9 -9.9 -9.999 -99.9 -99.99 -9.99
2019/12/11 17:06 EST   -0.17  -0.45    7  290    8  34.7  41.9 1024.9 -9.9 -9.999 -99.9 -99.99 -9.99
2019/12/11 17:12 EST   -0.12  -0.35    7  286    9  34.5  41.9 1025.0 -9.9 -9.999 -99.9 -99.99 -9.99
2019/12/11 17:18 EST   -0.06  -0.25    6  288    8  34.5  41.9 1025.1 -9.9 -9.999 -99.9 -99.99 -9.99
2019/12/11 17:24 EST    0.01  -0.14    6  279    9  34.5  41.9 1025.2 -9.9 -9.999 -99.9 -99.99 -9.99
2019/12/11 17:30 EST    0.09  -0.03    6  276    8  34.7  41.9 1025.3 -9.9 -9.999 -99.9 -99.99 -9.99
2019/12/11 17:36 EST    0.18   0.07    6  273    8  34.5  41.9 1025.4 -9.9 -9.999 -99.9 -99.99 -9.99
2019/12/11 17:42 EST    0.27   0.20    6  263    8  34.3  41.9 1025.4 -9.9 -9.999 -99.9 -99.99 -9.99
2019/12/11 17:48 EST    0.38   0.33    5  252    8  34.3  41.9 1025.5 -9.9 -9.999 -99.9 -99.99 -9.99
2019/12/11 17:54 EST    0.49   0.46    7  259    8  34.3  41.9 1025.5 -9.9 -9.999 -99.9 -99.99 -9.99
2019/12/11 18:00 EST    0.61   0.60    7  259    9  34.3  41.9 1025.6 -9.9 -9.999 -99.9 -99.99 -9.99
2019/12/11 18:06 EST    0.73   0.75    7  256    9  34.3  41.9 1025.7 -9.9 -9.999 -99.9 -99.99 -9.99
2019/12/11 18:12 EST    0.86   0.91    8  262   10  34.5  42.1 1025.7 -9.9 -9.999 -99.9 -99.99 -9.99
2019/12/11 18:18 EST    0.99   1.08    8  258   10  34.5  42.1 1025.7 -9.9 -9.999 -99.9 -99.99 -9.99
2019/12/11 18:24 EST    1.13   1.20    8  260   10  34.7  42.1 1025.8 -9.9 -9.999 -99.9 -99.99 -9.99
2019/12/11 18:30 EST    1.27   1.33    7  259   10  34.7  42.1 1025.9 -9.9 -9.999 -99.9 -99.99 -9.99
2019/12/11 18:36 EST    1.41   1.44    8  255    9  34.7  42.1 1025.9 -9.9 -9.999 -99.9 -99.99 -9.99
2019/12/11 18:42 EST    1.56   1.55    8  251   10  34.7  42.1 1026.1 -9.9 -9.999 -99.9 -99.99 -9.99
2019/12/11 18:48 EST    1.71   1.68    9  257   10  34.7  42.1 1026.2 -9.9 -9.999 -99.9 -99.99 -9.99
2019/12/11 18:54 EST    1.86   1.80    9  254   11  35.1  42.1 1026.2 -9.9 -9.999 -99.9 -99.99 -9.99
2019/12/11 19:00 EST    2.01   2.00    9  261   11  35.1  42.1 1026.2 -9.9 -9.999 -99.9 -99.99 -9.99
2019/12/11 19:06 EST    2.16   2.19   10  271   11  35.1  42.1 1026.1 -9.9 -9.999 -99.9 -99.99 -9.99
2019/12/11 19:12 EST    2.31   2.38   11  273   15  34.9  42.1 1026.1 -9.9 -9.999 -99.9 -99.99 -9.99
2019/12/11 19:18 EST    2.46   2.57   11  272   14  34.9  42.1 1026.0 -9.9 -9.999 -99.9 -99.99 -9.99
2019/12/11 19:24 EST    2.61   2.78   11  272   13  35.1  42.1 1026.1 -9.9 -9.999 -99.9 -99.99 -9.99
2019/12/11 19:30 EST    2.76   2.95   13  273   15  35.2  42.1 1026.1 -9.9 -9.999 -99.9 -99.99 -9.99
2019/12/11 19:36 EST    2.90   3.13   13  278   16  35.1  42.1 1026.2 -9.9 -9.999 -99.9 -99.99 -9.99
2019/12/11 19:42 EST    3.05   3.27   12  279   15  34.9  42.1 1026.4 -9.9 -9.999 -99.9 -99.99 -9.99
2019/12/11 19:48 EST    3.19   3.38   12  278   15  34.9  41.9 1026.4 -9.9 -9.999 -99.9 -99.99 -9.99
2019/12/11 19:54 EST    3.33   3.47   11  276   14  34.9  41.9 1026.4 -9.9 -9.999 -99.9 -99.99 -9.99
2019/12/11 20:00 EST    3.47   3.57   12  279   15  34.9  41.9 1026.4 -9.9 -9.999 -99.9 -99.99 -9.99
2019/12/11 20:06 EST    3.61   3.65   13  277   16  34.7  42.1 1026.5 -9.9 -9.999 -99.9 -99.99 -9.99
2019/12/11 20:12 EST    3.75   3.74   12  279   16  34.5  42.1 1026.5 -9.9 -9.999 -99.9 -99.99 -9.99
2019/12/11 20:18 EST    3.88   3.83   11  280   14  34.5  42.1 1026.6 -9.9 -9.999 -99.9 -99.99 -9.99
2019/12/11 20:24 EST    4.01   3.92   10  287   13  34.3  42.1 1026.6 -9.9 -9.999 -99.9 -99.99 -9.99
2019/12/11 20:30 EST    4.14   4.02   10  289   13  34.3  42.1 1026.6 -9.9 -9.999 -99.9 -99.99 -9.99
2019/12/11 20:36 EST    4.27   4.13   10  290   13  34.0  42.1 1026.7 -9.9 -9.999 -99.9 -99.99 -9.99
2019/12/11 20:42 EST    4.39   4.28   10  288   13  34.0  42.1 1026.7 -9.9 -9.999 -99.9 -99.99 -9.99
2019/12/11 20:48 EST    4.51   4.40   10  294   16  33.8  42.1 1026.8 -9.9 -9.999 -99.9 -99.99 -9.99
2019/12/11 20:54 EST    4.63   4.53   10  294   16  33.8  42.1 1026.9 -9.9 -9.999 -99.9 -99.99 -9.99
2019/12/11 21:00 EST    4.74   4.68   11  301   13  33.8  42.1 1026.9 -9.9 -9.999 -99.9 -99.99 -9.99
2019/12/11 21:06 EST    4.86   4.81   11  297   13  34.0  42.1 1027.0 -9.9 -9.999 -99.9 -99.99 -9.99
2019/12/11 21:12 EST    4.96   4.93    9  294   13  33.8  42.1 1026.9 -9.9 -9.999 -99.9 -99.99 -9.99
2019/12/11 21:18 EST    5.07   5.07   10  294   12  33.8  42.1 1027.0 -9.9 -9.999 -99.9 -99.99 -9.99
2019/12/11 21:24 EST    5.17   5.14   10  294   13  33.6  42.1 1027.1 -9.9 -9.999 -99.9 -99.99 -9.99
2019/12/11 21:30 EST    5.26   5.19   11  294   16  33.4  42.1 1027.2 -9.9 -9.999 -99.9 -99.99 -9.99
2019/12/11 21:36 EST    5.36   5.25   11  298   13  33.4  42.3 1027.3 -9.9 -9.999 -99.9 -99.99 -9.99
2019/12/11 21:42 EST    5.44   5.28   10  295   13  33.3  42.3 1027.4 -9.9 -9.999 -99.9 -99.99 -9.99
2019/12/11 21:48 EST    5.52   5.32    9  299   11  33.1  42.3 1027.7 -9.9 -9.999 -99.9 -99.99 -9.99
2019/12/11 21:54 EST    5.59   5.38    9  302   11  33.1  42.3 1027.7 -9.9 -9.999 -99.9 -99.99 -9.99
2019/12/11 22:00 EST    5.66   5.44    8  300   11  32.9  42.3 1027.8 -9.9 -9.999 -99.9 -99.99 -9.99
2019/12/11 22:06 EST    5.72   5.48    9  300   11  32.7  42.3 1028.0 -9.9 -9.999 -99.9 -99.99 -9.99
2019/12/11 22:12 EST    5.77   5.53    9  311   13  32.7  42.3 1028.2 -9.9 -9.999 -99.9 -99.99 -9.99
2019/12/11 22:18 EST    5.82   5.56    9  303   13  32.7  42.3 1028.3 -9.9 -9.999 -99.9 -99.99 -9.99
2019/12/11 22:24 EST    5.86   5.58   10  306   15  32.5  42.3 1028.5 -9.9 -9.999 -99.9 -99.99 -9.99
2019/12/11 22:30 EST    5.88   5.58    7  306   12  32.4  42.3 1028.7 -9.9 -9.999 -99.9 -99.99 -9.99
2019/12/11 22:36 EST    5.90   5.57    8  301   11  32.4  42.3 1028.7 -9.9 -9.999 -99.9 -99.99 -9.99
2019/12/11 22:42 EST    5.91   5.51   11  304   13  32.2  42.3 1028.8 -9.9 -9.999 -99.9 -99.99 -9.99
2019/12/11 22:48 EST    5.91   5.46   11  303   14  32.2  42.3 1028.9 -9.9 -9.999 -99.9 -99.99 -9.99
2019/12/11 22:54 EST    5.90   5.40    9  301   14  32.2  42.3 1029.1 -9.9 -9.999 -99.9 -99.99 -9.99
2019/12/11 23:00 EST    5.88   5.36    9  296   12  32.2  42.3 1029.4 -9.9 -9.999 -99.9 -99.99 -9.99
2019/12/11 23:06 EST    5.86   5.32   11  299   13  32.2  42.3 1029.4 -9.9 -9.999 -99.9 -99.99 -9.99
2019/12/11 23:12 EST    5.82   5.30    9  303   12  31.8  42.3 1029.4 -9.9 -9.999 -99.9 -99.99 -9.99
2019/12/11 23:18 EST    5.77   5.23    9  310   11  31.6  42.3 1029.5 -9.9 -9.999 -99.9 -99.99 -9.99
2019/12/11 23:24 EST    5.71   5.16    7  303   10  31.6  42.3 1029.7 -9.9 -9.999 -99.9 -99.99 -9.99
2019/12/11 23:30 EST    5.65   5.07    9  304   11  31.8  42.3 1029.9 -9.9 -9.999 -99.9 -99.99 -9.99
2019/12/11 23:36 EST    5.57   4.93    7  304   11  31.8  42.3 1029.9 -9.9 -9.999 -99.9 -99.99 -9.99
2019/12/11 23:42 EST    5.49   4.78    8  322   12  31.6  42.3 1030.1 -9.9 -9.999 -99.9 -99.99 -9.99
2019/12/11 23:48 EST    5.39   4.62    8  303   10  31.6  42.3 1030.1 -9.9 -9.999 -99.9 -99.99 -9.99
2019/12/11 23:54 EST    5.29   4.49    8  301   11  31.6  42.3 1030.3 -9.9 -9.999 -99.9 -99.99 -9.99
2019/12/12 00:00 EST    5.19   4.34    9  317   12  31.6  42.3 1030.3 -9.9 -9.999 -99.9 -99.99 -9.99
2019/12/12 00:06 EST    5.07   4.23   11  320   15  31.3  42.3 1030.4 -9.9 -9.999 -99.9 -99.99 -9.99
2019/12/12 00:12 EST    4.95   4.11   13  319   18  31.5  42.3 1030.6 -9.9 -9.999 -99.9 -99.99 -9.99
2019/12/12 00:18 EST    4.83   3.98    7  308   13  31.5  42.3 1030.8 -9.9 -9.999 -99.9 -99.99 -9.99
2019/12/12 00:24 EST    4.70   3.84    7  320   10  31.6  42.3 1030.9 -9.9 -9.999 -99.9 -99.99 -9.99
2019/12/12 00:30 EST    4.56   3.68   10  327   14  31.3  42.3 1030.9 -9.9 -9.999 -99.9 -99.99 -9.99
2019/12/12 00:36 EST    4.43   3.58   14  326   18  31.5  42.3 1031.1 -9.9 -9.999 -99.9 -99.99 -9.99
2019/12/12 00:42 EST    4.29 -99.99 -999 -999 -999 -99.9 -99.9 -999.9 -9.9 -9.999 -99.9 -99.99 -9.99
2019/12/12 00:48 EST    4.14 -99.99 -999 -999 -999 -99.9 -99.9 -999.9 -9.9 -9.999 -99.9 -99.99 -9.99